<?xml version="1.0" encoding="UTF-8" standalone="no" ?>
<gpx xmlns="http://www.topografix.com/GPX/1/1" xmlns:xsi="http://www.w3.org/2001/XMLSchema-instance" xsi:schemaLocation="http://www.topografix.com/GPX/1/1 http://www.topografix.com/GPX/1/1/gpx.xsd" version="1.1" creator="VisuGPX - https://www.visugpx.com">
  <metadata>
    <name>Boucle de BAZEMONT 08 mai 2012</name>
    <desc><![CDATA[Boucle de BAZEMONT 08 mai 2012]]></desc>
  </metadata>
  <trk>
    <name><![CDATA[08-MAI-12 BOUCLE BAZEMONT]]></name>
    <trkseg>
      <trkpt lat="48.93903" lon="1.84059">
        <ele>38.59</ele>
        <time>2012-05-08T12:37:24Z</time>
      </trkpt>
      <trkpt lat="48.93904" lon="1.84061">
        <ele>39.07</ele>
        <time>2012-05-08T12:37:53Z</time>
      </trkpt>
      <trkpt lat="48.93901" lon="1.84065">
        <ele>35.71</ele>
        <time>2012-05-08T12:38:14Z</time>
      </trkpt>
      <trkpt lat="48.93898" lon="1.84067">
        <ele>35.23</ele>
        <time>2012-05-08T12:38:23Z</time>
      </trkpt>
      <trkpt lat="48.93882" lon="1.84079">
        <ele>31.38</ele>
        <time>2012-05-08T12:38:39Z</time>
      </trkpt>
      <trkpt lat="48.93857" lon="1.84094">
        <ele>32.34</ele>
        <time>2012-05-08T12:38:59Z</time>
      </trkpt>
      <trkpt lat="48.93856" lon="1.84096">
        <ele>31.86</ele>
        <time>2012-05-08T12:39:01Z</time>
      </trkpt>
      <trkpt lat="48.93855" lon="1.8412">
        <ele>30.42</ele>
        <time>2012-05-08T12:39:12Z</time>
      </trkpt>
      <trkpt lat="48.93834" lon="1.8413">
        <ele>29.46</ele>
        <time>2012-05-08T12:39:30Z</time>
      </trkpt>
      <trkpt lat="48.93813" lon="1.84142">
        <ele>29.94</ele>
        <time>2012-05-08T12:39:47Z</time>
      </trkpt>
      <trkpt lat="48.93797" lon="1.8415">
        <ele>31.38</ele>
        <time>2012-05-08T12:40:01Z</time>
      </trkpt>
      <trkpt lat="48.93772" lon="1.84159">
        <ele>31.38</ele>
        <time>2012-05-08T12:40:21Z</time>
      </trkpt>
      <trkpt lat="48.93751" lon="1.84168">
        <ele>30.9</ele>
        <time>2012-05-08T12:40:38Z</time>
      </trkpt>
      <trkpt lat="48.93731" lon="1.84182">
        <ele>31.38</ele>
        <time>2012-05-08T12:40:56Z</time>
      </trkpt>
      <trkpt lat="48.93715" lon="1.842">
        <ele>34.74</ele>
        <time>2012-05-08T12:41:12Z</time>
      </trkpt>
      <trkpt lat="48.93698" lon="1.84223">
        <ele>37.15</ele>
        <time>2012-05-08T12:41:30Z</time>
      </trkpt>
      <trkpt lat="48.93688" lon="1.84242">
        <ele>35.71</ele>
        <time>2012-05-08T12:41:46Z</time>
      </trkpt>
      <trkpt lat="48.93684" lon="1.84248">
        <ele>35.71</ele>
        <time>2012-05-08T12:42:10Z</time>
      </trkpt>
      <trkpt lat="48.93682" lon="1.84253">
        <ele>35.71</ele>
        <time>2012-05-08T12:42:23Z</time>
      </trkpt>
      <trkpt lat="48.93682" lon="1.84253">
        <ele>35.71</ele>
        <time>2012-05-08T12:42:24Z</time>
      </trkpt>
      <trkpt lat="48.9369" lon="1.8424">
        <ele>34.74</ele>
        <time>2012-05-08T12:42:37Z</time>
      </trkpt>
      <trkpt lat="48.93692" lon="1.84251">
        <ele>34.26</ele>
        <time>2012-05-08T12:42:43Z</time>
      </trkpt>
      <trkpt lat="48.93707" lon="1.84279">
        <ele>32.82</ele>
        <time>2012-05-08T12:43:01Z</time>
      </trkpt>
      <trkpt lat="48.93721" lon="1.84305">
        <ele>30.9</ele>
        <time>2012-05-08T12:43:19Z</time>
      </trkpt>
      <trkpt lat="48.93735" lon="1.84334">
        <ele>32.82</ele>
        <time>2012-05-08T12:43:37Z</time>
      </trkpt>
      <trkpt lat="48.93747" lon="1.84365">
        <ele>32.34</ele>
        <time>2012-05-08T12:43:55Z</time>
      </trkpt>
      <trkpt lat="48.93754" lon="1.84386">
        <ele>33.3</ele>
        <time>2012-05-08T12:44:10Z</time>
      </trkpt>
      <trkpt lat="48.93764" lon="1.84415">
        <ele>32.82</ele>
        <time>2012-05-08T12:44:27Z</time>
      </trkpt>
      <trkpt lat="48.93764" lon="1.84423">
        <ele>32.82</ele>
        <time>2012-05-08T12:44:32Z</time>
      </trkpt>
      <trkpt lat="48.93749" lon="1.84437">
        <ele>33.3</ele>
        <time>2012-05-08T12:44:47Z</time>
      </trkpt>
      <trkpt lat="48.93735" lon="1.8445">
        <ele>34.74</ele>
        <time>2012-05-08T12:45:01Z</time>
      </trkpt>
      <trkpt lat="48.93718" lon="1.84466">
        <ele>34.26</ele>
        <time>2012-05-08T12:45:17Z</time>
      </trkpt>
      <trkpt lat="48.93714" lon="1.84471">
        <ele>34.74</ele>
        <time>2012-05-08T12:45:21Z</time>
      </trkpt>
      <trkpt lat="48.93713" lon="1.84479">
        <ele>34.74</ele>
        <time>2012-05-08T12:45:25Z</time>
      </trkpt>
      <trkpt lat="48.93722" lon="1.84511">
        <ele>33.78</ele>
        <time>2012-05-08T12:45:42Z</time>
      </trkpt>
      <trkpt lat="48.93729" lon="1.84549">
        <ele>34.74</ele>
        <time>2012-05-08T12:46:02Z</time>
      </trkpt>
      <trkpt lat="48.93738" lon="1.84585">
        <ele>34.26</ele>
        <time>2012-05-08T12:46:21Z</time>
      </trkpt>
      <trkpt lat="48.93744" lon="1.84612">
        <ele>34.26</ele>
        <time>2012-05-08T12:46:36Z</time>
      </trkpt>
      <trkpt lat="48.93747" lon="1.84622">
        <ele>34.26</ele>
        <time>2012-05-08T12:46:42Z</time>
      </trkpt>
      <trkpt lat="48.93744" lon="1.8463">
        <ele>35.71</ele>
        <time>2012-05-08T12:46:57Z</time>
      </trkpt>
      <trkpt lat="48.93743" lon="1.84629">
        <ele>35.71</ele>
        <time>2012-05-08T12:47:13Z</time>
      </trkpt>
      <trkpt lat="48.93744" lon="1.84636">
        <ele>35.71</ele>
        <time>2012-05-08T12:47:19Z</time>
      </trkpt>
      <trkpt lat="48.93742" lon="1.84641">
        <ele>36.19</ele>
        <time>2012-05-08T12:47:37Z</time>
      </trkpt>
      <trkpt lat="48.9374" lon="1.84643">
        <ele>36.67</ele>
        <time>2012-05-08T12:47:54Z</time>
      </trkpt>
      <trkpt lat="48.93737" lon="1.8464">
        <ele>36.67</ele>
        <time>2012-05-08T12:47:59Z</time>
      </trkpt>
      <trkpt lat="48.93728" lon="1.84664">
        <ele>38.11</ele>
        <time>2012-05-08T12:48:15Z</time>
      </trkpt>
      <trkpt lat="48.93718" lon="1.84683">
        <ele>37.15</ele>
        <time>2012-05-08T12:48:28Z</time>
      </trkpt>
      <trkpt lat="48.93706" lon="1.84707">
        <ele>39.07</ele>
        <time>2012-05-08T12:48:45Z</time>
      </trkpt>
      <trkpt lat="48.93702" lon="1.84714">
        <ele>39.07</ele>
        <time>2012-05-08T12:48:55Z</time>
      </trkpt>
      <trkpt lat="48.93702" lon="1.84713">
        <ele>39.07</ele>
        <time>2012-05-08T12:48:57Z</time>
      </trkpt>
      <trkpt lat="48.9369" lon="1.84735">
        <ele>40.03</ele>
        <time>2012-05-08T12:49:13Z</time>
      </trkpt>
      <trkpt lat="48.93675" lon="1.84755">
        <ele>40.99</ele>
        <time>2012-05-08T12:49:29Z</time>
      </trkpt>
      <trkpt lat="48.93661" lon="1.84769">
        <ele>41.95</ele>
        <time>2012-05-08T12:49:43Z</time>
      </trkpt>
      <trkpt lat="48.93657" lon="1.84777">
        <ele>41.47</ele>
        <time>2012-05-08T12:49:55Z</time>
      </trkpt>
      <trkpt lat="48.93654" lon="1.84776">
        <ele>41.95</ele>
        <time>2012-05-08T12:50:03Z</time>
      </trkpt>
      <trkpt lat="48.93648" lon="1.84781">
        <ele>42.44</ele>
        <time>2012-05-08T12:50:09Z</time>
      </trkpt>
      <trkpt lat="48.93628" lon="1.84797">
        <ele>44.36</ele>
        <time>2012-05-08T12:50:29Z</time>
      </trkpt>
      <trkpt lat="48.93613" lon="1.84816">
        <ele>44.84</ele>
        <time>2012-05-08T12:50:45Z</time>
      </trkpt>
      <trkpt lat="48.93598" lon="1.84833">
        <ele>43.88</ele>
        <time>2012-05-08T12:51:00Z</time>
      </trkpt>
      <trkpt lat="48.93586" lon="1.84849">
        <ele>45.32</ele>
        <time>2012-05-08T12:51:15Z</time>
      </trkpt>
      <trkpt lat="48.93576" lon="1.84862">
        <ele>45.32</ele>
        <time>2012-05-08T12:51:26Z</time>
      </trkpt>
      <trkpt lat="48.93557" lon="1.84885">
        <ele>46.28</ele>
        <time>2012-05-08T12:51:45Z</time>
      </trkpt>
      <trkpt lat="48.93541" lon="1.84908">
        <ele>46.76</ele>
        <time>2012-05-08T12:52:02Z</time>
      </trkpt>
      <trkpt lat="48.93529" lon="1.8493">
        <ele>47.24</ele>
        <time>2012-05-08T12:52:19Z</time>
      </trkpt>
      <trkpt lat="48.93529" lon="1.8493">
        <ele>47.24</ele>
        <time>2012-05-08T12:52:45Z</time>
      </trkpt>
      <trkpt lat="48.93524" lon="1.84936">
        <ele>47.72</ele>
        <time>2012-05-08T12:53:03Z</time>
      </trkpt>
      <trkpt lat="48.93521" lon="1.84943">
        <ele>47.72</ele>
        <time>2012-05-08T12:53:20Z</time>
      </trkpt>
      <trkpt lat="48.93506" lon="1.84968">
        <ele>49.65</ele>
        <time>2012-05-08T12:53:36Z</time>
      </trkpt>
      <trkpt lat="48.93494" lon="1.84994">
        <ele>49.65</ele>
        <time>2012-05-08T12:53:53Z</time>
      </trkpt>
      <trkpt lat="48.93487" lon="1.85022">
        <ele>51.09</ele>
        <time>2012-05-08T12:54:09Z</time>
      </trkpt>
      <trkpt lat="48.9348" lon="1.8505">
        <ele>51.57</ele>
        <time>2012-05-08T12:54:25Z</time>
      </trkpt>
      <trkpt lat="48.93478" lon="1.85063">
        <ele>52.53</ele>
        <time>2012-05-08T12:54:32Z</time>
      </trkpt>
      <trkpt lat="48.9347" lon="1.85096">
        <ele>53.49</ele>
        <time>2012-05-08T12:54:51Z</time>
      </trkpt>
      <trkpt lat="48.93463" lon="1.85122">
        <ele>53.97</ele>
        <time>2012-05-08T12:55:07Z</time>
      </trkpt>
      <trkpt lat="48.93452" lon="1.85152">
        <ele>53.01</ele>
        <time>2012-05-08T12:55:26Z</time>
      </trkpt>
      <trkpt lat="48.93444" lon="1.85178">
        <ele>54.93</ele>
        <time>2012-05-08T12:55:42Z</time>
      </trkpt>
      <trkpt lat="48.93443" lon="1.85194">
        <ele>55.41</ele>
        <time>2012-05-08T12:55:56Z</time>
      </trkpt>
      <trkpt lat="48.93443" lon="1.85195">
        <ele>55.41</ele>
        <time>2012-05-08T12:56:13Z</time>
      </trkpt>
      <trkpt lat="48.93442" lon="1.85195">
        <ele>55.41</ele>
        <time>2012-05-08T12:56:14Z</time>
      </trkpt>
      <trkpt lat="48.93432" lon="1.85189">
        <ele>54.45</ele>
        <time>2012-05-08T12:56:31Z</time>
      </trkpt>
      <trkpt lat="48.93424" lon="1.85187">
        <ele>53.49</ele>
        <time>2012-05-08T12:56:48Z</time>
      </trkpt>
      <trkpt lat="48.93409" lon="1.85174">
        <ele>53.01</ele>
        <time>2012-05-08T12:57:02Z</time>
      </trkpt>
      <trkpt lat="48.93388" lon="1.85157">
        <ele>53.01</ele>
        <time>2012-05-08T12:57:20Z</time>
      </trkpt>
      <trkpt lat="48.93374" lon="1.85146">
        <ele>53.49</ele>
        <time>2012-05-08T12:57:33Z</time>
      </trkpt>
      <trkpt lat="48.93353" lon="1.8513">
        <ele>55.41</ele>
        <time>2012-05-08T12:57:52Z</time>
      </trkpt>
      <trkpt lat="48.93332" lon="1.85119">
        <ele>57.34</ele>
        <time>2012-05-08T12:58:11Z</time>
      </trkpt>
      <trkpt lat="48.93312" lon="1.85113">
        <ele>59.26</ele>
        <time>2012-05-08T12:58:29Z</time>
      </trkpt>
      <trkpt lat="48.93287" lon="1.85105">
        <ele>61.66</ele>
        <time>2012-05-08T12:58:50Z</time>
      </trkpt>
      <trkpt lat="48.93264" lon="1.85098">
        <ele>62.62</ele>
        <time>2012-05-08T12:59:09Z</time>
      </trkpt>
      <trkpt lat="48.93243" lon="1.85091">
        <ele>63.58</ele>
        <time>2012-05-08T12:59:27Z</time>
      </trkpt>
      <trkpt lat="48.93241" lon="1.85095">
        <ele>64.07</ele>
        <time>2012-05-08T12:59:30Z</time>
      </trkpt>
      <trkpt lat="48.93246" lon="1.85109">
        <ele>64.55</ele>
        <time>2012-05-08T12:59:39Z</time>
      </trkpt>
      <trkpt lat="48.93251" lon="1.85144">
        <ele>64.07</ele>
        <time>2012-05-08T12:59:58Z</time>
      </trkpt>
      <trkpt lat="48.93253" lon="1.8518">
        <ele>63.1</ele>
        <time>2012-05-08T13:00:17Z</time>
      </trkpt>
      <trkpt lat="48.93257" lon="1.85211">
        <ele>62.62</ele>
        <time>2012-05-08T13:00:34Z</time>
      </trkpt>
      <trkpt lat="48.93259" lon="1.85229">
        <ele>63.1</ele>
        <time>2012-05-08T13:00:49Z</time>
      </trkpt>
      <trkpt lat="48.93261" lon="1.85246">
        <ele>63.1</ele>
        <time>2012-05-08T13:01:09Z</time>
      </trkpt>
      <trkpt lat="48.93264" lon="1.85281">
        <ele>64.07</ele>
        <time>2012-05-08T13:01:27Z</time>
      </trkpt>
      <trkpt lat="48.93267" lon="1.85312">
        <ele>63.58</ele>
        <time>2012-05-08T13:01:43Z</time>
      </trkpt>
      <trkpt lat="48.93269" lon="1.85343">
        <ele>64.55</ele>
        <time>2012-05-08T13:01:59Z</time>
      </trkpt>
      <trkpt lat="48.93272" lon="1.85375">
        <ele>63.58</ele>
        <time>2012-05-08T13:02:16Z</time>
      </trkpt>
      <trkpt lat="48.93277" lon="1.85414">
        <ele>63.1</ele>
        <time>2012-05-08T13:02:36Z</time>
      </trkpt>
      <trkpt lat="48.93279" lon="1.85448">
        <ele>63.1</ele>
        <time>2012-05-08T13:02:54Z</time>
      </trkpt>
      <trkpt lat="48.93283" lon="1.85479">
        <ele>63.58</ele>
        <time>2012-05-08T13:03:11Z</time>
      </trkpt>
      <trkpt lat="48.93286" lon="1.85514">
        <ele>63.1</ele>
        <time>2012-05-08T13:03:29Z</time>
      </trkpt>
      <trkpt lat="48.93289" lon="1.85547">
        <ele>63.1</ele>
        <time>2012-05-08T13:03:46Z</time>
      </trkpt>
      <trkpt lat="48.93295" lon="1.85576">
        <ele>62.62</ele>
        <time>2012-05-08T13:04:02Z</time>
      </trkpt>
      <trkpt lat="48.93304" lon="1.85609">
        <ele>61.66</ele>
        <time>2012-05-08T13:04:21Z</time>
      </trkpt>
      <trkpt lat="48.93307" lon="1.85615">
        <ele>61.66</ele>
        <time>2012-05-08T13:04:25Z</time>
      </trkpt>
      <trkpt lat="48.93317" lon="1.85646">
        <ele>61.66</ele>
        <time>2012-05-08T13:04:44Z</time>
      </trkpt>
      <trkpt lat="48.93327" lon="1.8568">
        <ele>61.18</ele>
        <time>2012-05-08T13:05:04Z</time>
      </trkpt>
      <trkpt lat="48.93337" lon="1.85712">
        <ele>61.66</ele>
        <time>2012-05-08T13:05:23Z</time>
      </trkpt>
      <trkpt lat="48.93348" lon="1.85742">
        <ele>63.1</ele>
        <time>2012-05-08T13:05:42Z</time>
      </trkpt>
      <trkpt lat="48.93357" lon="1.85772">
        <ele>63.1</ele>
        <time>2012-05-08T13:06:00Z</time>
      </trkpt>
      <trkpt lat="48.93368" lon="1.85804">
        <ele>62.62</ele>
        <time>2012-05-08T13:06:19Z</time>
      </trkpt>
      <trkpt lat="48.93377" lon="1.85833">
        <ele>63.1</ele>
        <time>2012-05-08T13:06:36Z</time>
      </trkpt>
      <trkpt lat="48.93386" lon="1.85862">
        <ele>64.07</ele>
        <time>2012-05-08T13:06:53Z</time>
      </trkpt>
      <trkpt lat="48.93395" lon="1.8589">
        <ele>64.07</ele>
        <time>2012-05-08T13:07:10Z</time>
      </trkpt>
      <trkpt lat="48.93405" lon="1.85918">
        <ele>64.55</ele>
        <time>2012-05-08T13:07:27Z</time>
      </trkpt>
      <trkpt lat="48.93413" lon="1.85944">
        <ele>65.51</ele>
        <time>2012-05-08T13:07:43Z</time>
      </trkpt>
      <trkpt lat="48.93419" lon="1.8597">
        <ele>66.47</ele>
        <time>2012-05-08T13:07:58Z</time>
      </trkpt>
      <trkpt lat="48.93426" lon="1.85995">
        <ele>67.43</ele>
        <time>2012-05-08T13:08:14Z</time>
      </trkpt>
      <trkpt lat="48.9343" lon="1.86026">
        <ele>68.39</ele>
        <time>2012-05-08T13:08:32Z</time>
      </trkpt>
      <trkpt lat="48.93432" lon="1.86061">
        <ele>69.83</ele>
        <time>2012-05-08T13:08:52Z</time>
      </trkpt>
      <trkpt lat="48.93435" lon="1.86097">
        <ele>71.27</ele>
        <time>2012-05-08T13:09:12Z</time>
      </trkpt>
      <trkpt lat="48.93437" lon="1.86109">
        <ele>71.27</ele>
        <time>2012-05-08T13:09:27Z</time>
      </trkpt>
      <trkpt lat="48.93437" lon="1.86109">
        <ele>71.27</ele>
        <time>2012-05-08T13:09:36Z</time>
      </trkpt>
      <trkpt lat="48.93455" lon="1.8612">
        <ele>70.79</ele>
        <time>2012-05-08T13:09:53Z</time>
      </trkpt>
      <trkpt lat="48.93464" lon="1.86129">
        <ele>72.24</ele>
        <time>2012-05-08T13:10:07Z</time>
      </trkpt>
      <trkpt lat="48.93479" lon="1.86129">
        <ele>70.79</ele>
        <time>2012-05-08T13:10:21Z</time>
      </trkpt>
      <trkpt lat="48.93481" lon="1.86129">
        <ele>70.31</ele>
        <time>2012-05-08T13:10:33Z</time>
      </trkpt>
      <trkpt lat="48.93493" lon="1.86131">
        <ele>69.35</ele>
        <time>2012-05-08T13:10:46Z</time>
      </trkpt>
      <trkpt lat="48.93512" lon="1.86131">
        <ele>68.87</ele>
        <time>2012-05-08T13:11:02Z</time>
      </trkpt>
      <trkpt lat="48.93517" lon="1.8613">
        <ele>68.39</ele>
        <time>2012-05-08T13:11:14Z</time>
      </trkpt>
      <trkpt lat="48.93516" lon="1.86131">
        <ele>68.87</ele>
        <time>2012-05-08T13:11:24Z</time>
      </trkpt>
      <trkpt lat="48.93513" lon="1.86131">
        <ele>68.87</ele>
        <time>2012-05-08T13:11:27Z</time>
      </trkpt>
      <trkpt lat="48.9351" lon="1.86135">
        <ele>68.87</ele>
        <time>2012-05-08T13:11:34Z</time>
      </trkpt>
      <trkpt lat="48.93497" lon="1.86129">
        <ele>67.91</ele>
        <time>2012-05-08T13:11:47Z</time>
      </trkpt>
      <trkpt lat="48.93482" lon="1.86133">
        <ele>67.91</ele>
        <time>2012-05-08T13:12:01Z</time>
      </trkpt>
      <trkpt lat="48.93477" lon="1.86141">
        <ele>69.35</ele>
        <time>2012-05-08T13:12:08Z</time>
      </trkpt>
      <trkpt lat="48.93477" lon="1.86151">
        <ele>69.83</ele>
        <time>2012-05-08T13:12:13Z</time>
      </trkpt>
      <trkpt lat="48.93476" lon="1.86181">
        <ele>69.83</ele>
        <time>2012-05-08T13:12:29Z</time>
      </trkpt>
      <trkpt lat="48.93475" lon="1.86211">
        <ele>69.35</ele>
        <time>2012-05-08T13:12:47Z</time>
      </trkpt>
      <trkpt lat="48.93476" lon="1.86238">
        <ele>70.79</ele>
        <time>2012-05-08T13:13:04Z</time>
      </trkpt>
      <trkpt lat="48.93475" lon="1.86267">
        <ele>72.24</ele>
        <time>2012-05-08T13:13:21Z</time>
      </trkpt>
      <trkpt lat="48.93474" lon="1.86298">
        <ele>74.16</ele>
        <time>2012-05-08T13:13:39Z</time>
      </trkpt>
      <trkpt lat="48.9347" lon="1.8633">
        <ele>76.08</ele>
        <time>2012-05-08T13:13:58Z</time>
      </trkpt>
      <trkpt lat="48.93465" lon="1.86355">
        <ele>77.04</ele>
        <time>2012-05-08T13:14:14Z</time>
      </trkpt>
      <trkpt lat="48.93462" lon="1.8638">
        <ele>78.48</ele>
        <time>2012-05-08T13:14:30Z</time>
      </trkpt>
      <trkpt lat="48.93462" lon="1.86401">
        <ele>79.93</ele>
        <time>2012-05-08T13:14:44Z</time>
      </trkpt>
      <trkpt lat="48.93462" lon="1.86419">
        <ele>80.89</ele>
        <time>2012-05-08T13:14:56Z</time>
      </trkpt>
      <trkpt lat="48.9346" lon="1.8645">
        <ele>82.81</ele>
        <time>2012-05-08T13:15:15Z</time>
      </trkpt>
      <trkpt lat="48.93457" lon="1.86476">
        <ele>84.73</ele>
        <time>2012-05-08T13:15:30Z</time>
      </trkpt>
      <trkpt lat="48.93453" lon="1.86503">
        <ele>84.73</ele>
        <time>2012-05-08T13:15:46Z</time>
      </trkpt>
      <trkpt lat="48.9345" lon="1.86523">
        <ele>84.73</ele>
        <time>2012-05-08T13:16:00Z</time>
      </trkpt>
      <trkpt lat="48.93448" lon="1.86533">
        <ele>84.73</ele>
        <time>2012-05-08T13:16:16Z</time>
      </trkpt>
      <trkpt lat="48.93445" lon="1.8655">
        <ele>84.73</ele>
        <time>2012-05-08T13:16:27Z</time>
      </trkpt>
      <trkpt lat="48.93438" lon="1.86578">
        <ele>84.25</ele>
        <time>2012-05-08T13:16:45Z</time>
      </trkpt>
      <trkpt lat="48.9343" lon="1.86604">
        <ele>83.77</ele>
        <time>2012-05-08T13:17:02Z</time>
      </trkpt>
      <trkpt lat="48.9343" lon="1.86608">
        <ele>84.25</ele>
        <time>2012-05-08T13:17:04Z</time>
      </trkpt>
      <trkpt lat="48.93429" lon="1.86615">
        <ele>84.73</ele>
        <time>2012-05-08T13:17:08Z</time>
      </trkpt>
      <trkpt lat="48.93421" lon="1.86639">
        <ele>85.69</ele>
        <time>2012-05-08T13:17:24Z</time>
      </trkpt>
      <trkpt lat="48.93409" lon="1.86662">
        <ele>87.14</ele>
        <time>2012-05-08T13:17:40Z</time>
      </trkpt>
      <trkpt lat="48.93397" lon="1.86683">
        <ele>90.02</ele>
        <time>2012-05-08T13:17:56Z</time>
      </trkpt>
      <trkpt lat="48.93392" lon="1.86692">
        <ele>91.46</ele>
        <time>2012-05-08T13:18:05Z</time>
      </trkpt>
      <trkpt lat="48.9338" lon="1.86709">
        <ele>93.87</ele>
        <time>2012-05-08T13:18:21Z</time>
      </trkpt>
      <trkpt lat="48.93369" lon="1.86728">
        <ele>93.39</ele>
        <time>2012-05-08T13:18:36Z</time>
      </trkpt>
      <trkpt lat="48.93363" lon="1.86738">
        <ele>93.39</ele>
        <time>2012-05-08T13:18:44Z</time>
      </trkpt>
      <trkpt lat="48.9336" lon="1.86757">
        <ele>93.87</ele>
        <time>2012-05-08T13:18:57Z</time>
      </trkpt>
      <trkpt lat="48.9337" lon="1.86777">
        <ele>95.79</ele>
        <time>2012-05-08T13:19:13Z</time>
      </trkpt>
      <trkpt lat="48.93371" lon="1.86784">
        <ele>99.15</ele>
        <time>2012-05-08T13:19:22Z</time>
      </trkpt>
      <trkpt lat="48.9336" lon="1.86802">
        <ele>101.56</ele>
        <time>2012-05-08T13:19:40Z</time>
      </trkpt>
      <trkpt lat="48.93351" lon="1.86824">
        <ele>101.56</ele>
        <time>2012-05-08T13:19:55Z</time>
      </trkpt>
      <trkpt lat="48.9335" lon="1.86826">
        <ele>101.08</ele>
        <time>2012-05-08T13:19:56Z</time>
      </trkpt>
      <trkpt lat="48.9335" lon="1.86833">
        <ele>102.52</ele>
        <time>2012-05-08T13:20:01Z</time>
      </trkpt>
      <trkpt lat="48.93351" lon="1.86835">
        <ele>103</ele>
        <time>2012-05-08T13:20:03Z</time>
      </trkpt>
      <trkpt lat="48.9336" lon="1.86825">
        <ele>103.96</ele>
        <time>2012-05-08T13:20:16Z</time>
      </trkpt>
      <trkpt lat="48.93374" lon="1.86807">
        <ele>103.96</ele>
        <time>2012-05-08T13:20:32Z</time>
      </trkpt>
      <trkpt lat="48.93378" lon="1.86804">
        <ele>104.44</ele>
        <time>2012-05-08T13:20:36Z</time>
      </trkpt>
      <trkpt lat="48.93395" lon="1.86794">
        <ele>103.48</ele>
        <time>2012-05-08T13:20:51Z</time>
      </trkpt>
      <trkpt lat="48.93408" lon="1.86792">
        <ele>103.48</ele>
        <time>2012-05-08T13:21:03Z</time>
      </trkpt>
      <trkpt lat="48.93424" lon="1.86799">
        <ele>104.92</ele>
        <time>2012-05-08T13:21:18Z</time>
      </trkpt>
      <trkpt lat="48.93442" lon="1.86812">
        <ele>106.84</ele>
        <time>2012-05-08T13:21:35Z</time>
      </trkpt>
      <trkpt lat="48.93449" lon="1.86817">
        <ele>106.84</ele>
        <time>2012-05-08T13:21:41Z</time>
      </trkpt>
      <trkpt lat="48.93453" lon="1.86822">
        <ele>106.84</ele>
        <time>2012-05-08T13:21:46Z</time>
      </trkpt>
      <trkpt lat="48.9347" lon="1.86836">
        <ele>107.81</ele>
        <time>2012-05-08T13:22:05Z</time>
      </trkpt>
      <trkpt lat="48.93472" lon="1.86837">
        <ele>108.29</ele>
        <time>2012-05-08T13:22:31Z</time>
      </trkpt>
      <trkpt lat="48.93478" lon="1.8684">
        <ele>107.81</ele>
        <time>2012-05-08T13:22:45Z</time>
      </trkpt>
      <trkpt lat="48.93479" lon="1.8684">
        <ele>108.29</ele>
        <time>2012-05-08T13:23:06Z</time>
      </trkpt>
      <trkpt lat="48.93479" lon="1.8684">
        <ele>108.29</ele>
        <time>2012-05-08T13:23:12Z</time>
      </trkpt>
      <trkpt lat="48.93483" lon="1.86852">
        <ele>108.29</ele>
        <time>2012-05-08T13:23:20Z</time>
      </trkpt>
      <trkpt lat="48.93492" lon="1.86877">
        <ele>108.77</ele>
        <time>2012-05-08T13:23:37Z</time>
      </trkpt>
      <trkpt lat="48.93499" lon="1.86903">
        <ele>110.69</ele>
        <time>2012-05-08T13:23:53Z</time>
      </trkpt>
      <trkpt lat="48.93505" lon="1.86927">
        <ele>111.65</ele>
        <time>2012-05-08T13:24:08Z</time>
      </trkpt>
      <trkpt lat="48.93508" lon="1.86941">
        <ele>112.61</ele>
        <time>2012-05-08T13:24:17Z</time>
      </trkpt>
      <trkpt lat="48.93517" lon="1.8696">
        <ele>115.98</ele>
        <time>2012-05-08T13:24:32Z</time>
      </trkpt>
      <trkpt lat="48.93529" lon="1.86979">
        <ele>119.34</ele>
        <time>2012-05-08T13:24:47Z</time>
      </trkpt>
      <trkpt lat="48.9354" lon="1.86997">
        <ele>123.67</ele>
        <time>2012-05-08T13:25:02Z</time>
      </trkpt>
      <trkpt lat="48.93541" lon="1.86999">
        <ele>124.15</ele>
        <time>2012-05-08T13:25:04Z</time>
      </trkpt>
      <trkpt lat="48.93543" lon="1.87001">
        <ele>124.15</ele>
        <time>2012-05-08T13:25:06Z</time>
      </trkpt>
      <trkpt lat="48.93556" lon="1.8702">
        <ele>125.11</ele>
        <time>2012-05-08T13:25:21Z</time>
      </trkpt>
      <trkpt lat="48.9357" lon="1.87043">
        <ele>127.99</ele>
        <time>2012-05-08T13:25:36Z</time>
      </trkpt>
      <trkpt lat="48.93574" lon="1.87051">
        <ele>129.43</ele>
        <time>2012-05-08T13:25:42Z</time>
      </trkpt>
      <trkpt lat="48.93582" lon="1.87067">
        <ele>127.51</ele>
        <time>2012-05-08T13:25:55Z</time>
      </trkpt>
      <trkpt lat="48.93584" lon="1.87071">
        <ele>127.03</ele>
        <time>2012-05-08T13:25:58Z</time>
      </trkpt>
      <trkpt lat="48.93586" lon="1.87081">
        <ele>126.55</ele>
        <time>2012-05-08T13:26:04Z</time>
      </trkpt>
      <trkpt lat="48.9359" lon="1.87094">
        <ele>127.51</ele>
        <time>2012-05-08T13:26:12Z</time>
      </trkpt>
      <trkpt lat="48.93592" lon="1.87103">
        <ele>127.99</ele>
        <time>2012-05-08T13:26:17Z</time>
      </trkpt>
      <trkpt lat="48.93594" lon="1.87116">
        <ele>129.92</ele>
        <time>2012-05-08T13:26:25Z</time>
      </trkpt>
      <trkpt lat="48.93593" lon="1.87122">
        <ele>130.88</ele>
        <time>2012-05-08T13:26:29Z</time>
      </trkpt>
      <trkpt lat="48.93579" lon="1.87135">
        <ele>132.32</ele>
        <time>2012-05-08T13:26:45Z</time>
      </trkpt>
      <trkpt lat="48.93566" lon="1.87147">
        <ele>131.84</ele>
        <time>2012-05-08T13:26:58Z</time>
      </trkpt>
      <trkpt lat="48.93557" lon="1.87151">
        <ele>131.84</ele>
        <time>2012-05-08T13:27:05Z</time>
      </trkpt>
      <trkpt lat="48.93547" lon="1.87159">
        <ele>133.76</ele>
        <time>2012-05-08T13:27:17Z</time>
      </trkpt>
      <trkpt lat="48.9354" lon="1.8717">
        <ele>135.2</ele>
        <time>2012-05-08T13:27:27Z</time>
      </trkpt>
      <trkpt lat="48.93541" lon="1.87188">
        <ele>137.13</ele>
        <time>2012-05-08T13:27:39Z</time>
      </trkpt>
      <trkpt lat="48.93539" lon="1.87207">
        <ele>137.13</ele>
        <time>2012-05-08T13:27:52Z</time>
      </trkpt>
      <trkpt lat="48.93537" lon="1.87223">
        <ele>136.16</ele>
        <time>2012-05-08T13:28:04Z</time>
      </trkpt>
      <trkpt lat="48.93538" lon="1.87243">
        <ele>137.13</ele>
        <time>2012-05-08T13:28:18Z</time>
      </trkpt>
      <trkpt lat="48.93537" lon="1.87252">
        <ele>137.61</ele>
        <time>2012-05-08T13:28:32Z</time>
      </trkpt>
      <trkpt lat="48.93537" lon="1.87252">
        <ele>137.61</ele>
        <time>2012-05-08T13:28:54Z</time>
      </trkpt>
      <trkpt lat="48.93537" lon="1.87252">
        <ele>137.61</ele>
        <time>2012-05-08T13:29:20Z</time>
      </trkpt>
      <trkpt lat="48.93537" lon="1.87252">
        <ele>137.61</ele>
        <time>2012-05-08T13:29:40Z</time>
      </trkpt>
      <trkpt lat="48.93539" lon="1.87261">
        <ele>140.49</ele>
        <time>2012-05-08T13:29:50Z</time>
      </trkpt>
      <trkpt lat="48.93539" lon="1.87265">
        <ele>145.3</ele>
        <time>2012-05-08T13:30:02Z</time>
      </trkpt>
      <trkpt lat="48.93542" lon="1.87267">
        <ele>145.78</ele>
        <time>2012-05-08T13:30:13Z</time>
      </trkpt>
      <trkpt lat="48.93548" lon="1.87264">
        <ele>147.22</ele>
        <time>2012-05-08T13:30:27Z</time>
      </trkpt>
      <trkpt lat="48.93548" lon="1.87265">
        <ele>147.22</ele>
        <time>2012-05-08T13:30:45Z</time>
      </trkpt>
      <trkpt lat="48.93548" lon="1.87265">
        <ele>147.22</ele>
        <time>2012-05-08T13:31:11Z</time>
      </trkpt>
      <trkpt lat="48.93549" lon="1.87265">
        <ele>147.7</ele>
        <time>2012-05-08T13:31:36Z</time>
      </trkpt>
      <trkpt lat="48.93549" lon="1.87265">
        <ele>147.7</ele>
        <time>2012-05-08T13:32:07Z</time>
      </trkpt>
      <trkpt lat="48.93549" lon="1.87265">
        <ele>147.7</ele>
        <time>2012-05-08T13:32:29Z</time>
      </trkpt>
      <trkpt lat="48.93549" lon="1.87265">
        <ele>148.18</ele>
        <time>2012-05-08T13:32:49Z</time>
      </trkpt>
      <trkpt lat="48.93549" lon="1.87264">
        <ele>148.66</ele>
        <time>2012-05-08T13:33:18Z</time>
      </trkpt>
      <trkpt lat="48.93549" lon="1.87264">
        <ele>148.66</ele>
        <time>2012-05-08T13:33:45Z</time>
      </trkpt>
      <trkpt lat="48.93549" lon="1.87264">
        <ele>148.18</ele>
        <time>2012-05-08T13:34:11Z</time>
      </trkpt>
      <trkpt lat="48.93549" lon="1.87266">
        <ele>149.62</ele>
        <time>2012-05-08T13:34:33Z</time>
      </trkpt>
      <trkpt lat="48.9355" lon="1.87267">
        <ele>149.62</ele>
        <time>2012-05-08T13:34:46Z</time>
      </trkpt>
      <trkpt lat="48.9355" lon="1.87267">
        <ele>149.62</ele>
        <time>2012-05-08T13:35:14Z</time>
      </trkpt>
      <trkpt lat="48.93548" lon="1.87267">
        <ele>150.1</ele>
        <time>2012-05-08T13:35:34Z</time>
      </trkpt>
      <trkpt lat="48.93545" lon="1.87266">
        <ele>150.1</ele>
        <time>2012-05-08T13:35:48Z</time>
      </trkpt>
      <trkpt lat="48.93541" lon="1.87264">
        <ele>151.06</ele>
        <time>2012-05-08T13:35:51Z</time>
      </trkpt>
      <trkpt lat="48.93542" lon="1.87277">
        <ele>149.62</ele>
        <time>2012-05-08T13:36:02Z</time>
      </trkpt>
      <trkpt lat="48.93544" lon="1.87297">
        <ele>151.54</ele>
        <time>2012-05-08T13:36:15Z</time>
      </trkpt>
      <trkpt lat="48.93544" lon="1.87306">
        <ele>151.54</ele>
        <time>2012-05-08T13:36:20Z</time>
      </trkpt>
      <trkpt lat="48.93544" lon="1.87324">
        <ele>151.06</ele>
        <time>2012-05-08T13:36:32Z</time>
      </trkpt>
      <trkpt lat="48.93543" lon="1.87346">
        <ele>152.03</ele>
        <time>2012-05-08T13:36:49Z</time>
      </trkpt>
      <trkpt lat="48.93543" lon="1.87356">
        <ele>153.47</ele>
        <time>2012-05-08T13:36:56Z</time>
      </trkpt>
      <trkpt lat="48.93541" lon="1.87376">
        <ele>154.91</ele>
        <time>2012-05-08T13:37:10Z</time>
      </trkpt>
      <trkpt lat="48.93537" lon="1.8739">
        <ele>156.83</ele>
        <time>2012-05-08T13:37:23Z</time>
      </trkpt>
      <trkpt lat="48.93536" lon="1.87393">
        <ele>156.83</ele>
        <time>2012-05-08T13:37:25Z</time>
      </trkpt>
      <trkpt lat="48.9353" lon="1.87412">
        <ele>155.87</ele>
        <time>2012-05-08T13:37:38Z</time>
      </trkpt>
      <trkpt lat="48.93532" lon="1.8743">
        <ele>158.27</ele>
        <time>2012-05-08T13:37:51Z</time>
      </trkpt>
      <trkpt lat="48.93537" lon="1.87441">
        <ele>159.72</ele>
        <time>2012-05-08T13:38:00Z</time>
      </trkpt>
      <trkpt lat="48.9354" lon="1.87444">
        <ele>159.72</ele>
        <time>2012-05-08T13:38:03Z</time>
      </trkpt>
      <trkpt lat="48.93544" lon="1.87449">
        <ele>160.2</ele>
        <time>2012-05-08T13:38:07Z</time>
      </trkpt>
      <trkpt lat="48.93549" lon="1.87459">
        <ele>160.2</ele>
        <time>2012-05-08T13:38:17Z</time>
      </trkpt>
      <trkpt lat="48.9355" lon="1.87476">
        <ele>164.04</ele>
        <time>2012-05-08T13:38:32Z</time>
      </trkpt>
      <trkpt lat="48.93554" lon="1.87486">
        <ele>165.48</ele>
        <time>2012-05-08T13:38:39Z</time>
      </trkpt>
      <trkpt lat="48.93561" lon="1.87497">
        <ele>167.89</ele>
        <time>2012-05-08T13:38:49Z</time>
      </trkpt>
      <trkpt lat="48.93568" lon="1.87513">
        <ele>169.81</ele>
        <time>2012-05-08T13:39:05Z</time>
      </trkpt>
      <trkpt lat="48.93577" lon="1.87531">
        <ele>173.17</ele>
        <time>2012-05-08T13:39:20Z</time>
      </trkpt>
      <trkpt lat="48.93587" lon="1.87543">
        <ele>173.66</ele>
        <time>2012-05-08T13:39:34Z</time>
      </trkpt>
      <trkpt lat="48.93587" lon="1.87543">
        <ele>173.66</ele>
        <time>2012-05-08T13:39:51Z</time>
      </trkpt>
      <trkpt lat="48.93591" lon="1.87547">
        <ele>172.69</ele>
        <time>2012-05-08T13:40:08Z</time>
      </trkpt>
      <trkpt lat="48.93602" lon="1.8756">
        <ele>177.98</ele>
        <time>2012-05-08T13:40:18Z</time>
      </trkpt>
      <trkpt lat="48.93615" lon="1.87574">
        <ele>182.79</ele>
        <time>2012-05-08T13:40:32Z</time>
      </trkpt>
      <trkpt lat="48.93621" lon="1.87585">
        <ele>184.71</ele>
        <time>2012-05-08T13:40:45Z</time>
      </trkpt>
      <trkpt lat="48.9363" lon="1.87594">
        <ele>185.19</ele>
        <time>2012-05-08T13:40:58Z</time>
      </trkpt>
      <trkpt lat="48.93639" lon="1.87608">
        <ele>187.11</ele>
        <time>2012-05-08T13:41:11Z</time>
      </trkpt>
      <trkpt lat="48.93642" lon="1.87619">
        <ele>189.52</ele>
        <time>2012-05-08T13:41:25Z</time>
      </trkpt>
      <trkpt lat="48.93655" lon="1.87642">
        <ele>190</ele>
        <time>2012-05-08T13:41:40Z</time>
      </trkpt>
      <trkpt lat="48.93667" lon="1.8766">
        <ele>190.96</ele>
        <time>2012-05-08T13:41:55Z</time>
      </trkpt>
      <trkpt lat="48.93677" lon="1.87677">
        <ele>190.48</ele>
        <time>2012-05-08T13:42:07Z</time>
      </trkpt>
      <trkpt lat="48.9369" lon="1.87697">
        <ele>190.96</ele>
        <time>2012-05-08T13:42:20Z</time>
      </trkpt>
      <trkpt lat="48.93703" lon="1.87721">
        <ele>190.96</ele>
        <time>2012-05-08T13:42:34Z</time>
      </trkpt>
      <trkpt lat="48.93711" lon="1.87733">
        <ele>193.36</ele>
        <time>2012-05-08T13:42:42Z</time>
      </trkpt>
      <trkpt lat="48.93712" lon="1.8774">
        <ele>193.36</ele>
        <time>2012-05-08T13:42:58Z</time>
      </trkpt>
      <trkpt lat="48.9371" lon="1.87741">
        <ele>191.92</ele>
        <time>2012-05-08T13:43:10Z</time>
      </trkpt>
      <trkpt lat="48.9371" lon="1.87739">
        <ele>191.44</ele>
        <time>2012-05-08T13:43:16Z</time>
      </trkpt>
      <trkpt lat="48.93714" lon="1.87725">
        <ele>186.63</ele>
        <time>2012-05-08T13:43:29Z</time>
      </trkpt>
      <trkpt lat="48.93714" lon="1.87722">
        <ele>185.19</ele>
        <time>2012-05-08T13:43:48Z</time>
      </trkpt>
      <trkpt lat="48.93717" lon="1.87708">
        <ele>182.79</ele>
        <time>2012-05-08T13:44:01Z</time>
      </trkpt>
      <trkpt lat="48.93717" lon="1.87703">
        <ele>181.83</ele>
        <time>2012-05-08T13:44:04Z</time>
      </trkpt>
      <trkpt lat="48.9372" lon="1.87697">
        <ele>180.87</ele>
        <time>2012-05-08T13:44:08Z</time>
      </trkpt>
      <trkpt lat="48.93721" lon="1.87686">
        <ele>178.94</ele>
        <time>2012-05-08T13:44:13Z</time>
      </trkpt>
      <trkpt lat="48.93724" lon="1.87677">
        <ele>178.46</ele>
        <time>2012-05-08T13:44:19Z</time>
      </trkpt>
      <trkpt lat="48.93726" lon="1.87659">
        <ele>176.54</ele>
        <time>2012-05-08T13:44:29Z</time>
      </trkpt>
      <trkpt lat="48.9373" lon="1.8764">
        <ele>173.17</ele>
        <time>2012-05-08T13:44:41Z</time>
      </trkpt>
      <trkpt lat="48.93731" lon="1.87622">
        <ele>171.73</ele>
        <time>2012-05-08T13:44:54Z</time>
      </trkpt>
      <trkpt lat="48.93739" lon="1.87601">
        <ele>169.33</ele>
        <time>2012-05-08T13:45:07Z</time>
      </trkpt>
      <trkpt lat="48.93741" lon="1.87596">
        <ele>169.81</ele>
        <time>2012-05-08T13:45:10Z</time>
      </trkpt>
      <trkpt lat="48.93746" lon="1.87583">
        <ele>169.81</ele>
        <time>2012-05-08T13:45:18Z</time>
      </trkpt>
      <trkpt lat="48.93749" lon="1.87574">
        <ele>169.81</ele>
        <time>2012-05-08T13:45:23Z</time>
      </trkpt>
      <trkpt lat="48.93753" lon="1.8756">
        <ele>168.85</ele>
        <time>2012-05-08T13:45:32Z</time>
      </trkpt>
      <trkpt lat="48.93754" lon="1.87556">
        <ele>168.37</ele>
        <time>2012-05-08T13:45:34Z</time>
      </trkpt>
      <trkpt lat="48.93758" lon="1.8754">
        <ele>165.96</ele>
        <time>2012-05-08T13:45:44Z</time>
      </trkpt>
      <trkpt lat="48.93764" lon="1.87514">
        <ele>166.93</ele>
        <time>2012-05-08T13:45:58Z</time>
      </trkpt>
      <trkpt lat="48.93766" lon="1.87507">
        <ele>166.45</ele>
        <time>2012-05-08T13:46:02Z</time>
      </trkpt>
      <trkpt lat="48.93772" lon="1.87487">
        <ele>165.48</ele>
        <time>2012-05-08T13:46:14Z</time>
      </trkpt>
      <trkpt lat="48.9378" lon="1.87469">
        <ele>162.6</ele>
        <time>2012-05-08T13:46:27Z</time>
      </trkpt>
      <trkpt lat="48.9378" lon="1.87448">
        <ele>159.24</ele>
        <time>2012-05-08T13:46:41Z</time>
      </trkpt>
      <trkpt lat="48.93787" lon="1.87431">
        <ele>159.72</ele>
        <time>2012-05-08T13:46:50Z</time>
      </trkpt>
      <trkpt lat="48.93789" lon="1.87417">
        <ele>160.2</ele>
        <time>2012-05-08T13:46:58Z</time>
      </trkpt>
      <trkpt lat="48.93791" lon="1.87413">
        <ele>160.2</ele>
        <time>2012-05-08T13:47:00Z</time>
      </trkpt>
      <trkpt lat="48.93793" lon="1.87405">
        <ele>159.72</ele>
        <time>2012-05-08T13:47:05Z</time>
      </trkpt>
      <trkpt lat="48.93793" lon="1.87401">
        <ele>159.24</ele>
        <time>2012-05-08T13:47:07Z</time>
      </trkpt>
      <trkpt lat="48.93794" lon="1.87394">
        <ele>158.27</ele>
        <time>2012-05-08T13:47:11Z</time>
      </trkpt>
      <trkpt lat="48.93795" lon="1.8739">
        <ele>157.79</ele>
        <time>2012-05-08T13:47:14Z</time>
      </trkpt>
      <trkpt lat="48.938" lon="1.87374">
        <ele>157.31</ele>
        <time>2012-05-08T13:47:24Z</time>
      </trkpt>
      <trkpt lat="48.93806" lon="1.87351">
        <ele>158.27</ele>
        <time>2012-05-08T13:47:37Z</time>
      </trkpt>
      <trkpt lat="48.9381" lon="1.8734">
        <ele>158.75</ele>
        <time>2012-05-08T13:47:44Z</time>
      </trkpt>
      <trkpt lat="48.93816" lon="1.87329">
        <ele>158.27</ele>
        <time>2012-05-08T13:47:50Z</time>
      </trkpt>
      <trkpt lat="48.93822" lon="1.87309">
        <ele>157.31</ele>
        <time>2012-05-08T13:48:02Z</time>
      </trkpt>
      <trkpt lat="48.93824" lon="1.87298">
        <ele>156.35</ele>
        <time>2012-05-08T13:48:08Z</time>
      </trkpt>
      <trkpt lat="48.9383" lon="1.87275">
        <ele>157.31</ele>
        <time>2012-05-08T13:48:23Z</time>
      </trkpt>
      <trkpt lat="48.93832" lon="1.87265">
        <ele>157.79</ele>
        <time>2012-05-08T13:48:35Z</time>
      </trkpt>
      <trkpt lat="48.93835" lon="1.8726">
        <ele>157.31</ele>
        <time>2012-05-08T13:48:39Z</time>
      </trkpt>
      <trkpt lat="48.93838" lon="1.87243">
        <ele>154.91</ele>
        <time>2012-05-08T13:48:48Z</time>
      </trkpt>
      <trkpt lat="48.93844" lon="1.8722">
        <ele>152.03</ele>
        <time>2012-05-08T13:49:02Z</time>
      </trkpt>
      <trkpt lat="48.93845" lon="1.87215">
        <ele>151.54</ele>
        <time>2012-05-08T13:49:22Z</time>
      </trkpt>
      <trkpt lat="48.93848" lon="1.87209">
        <ele>151.06</ele>
        <time>2012-05-08T13:49:26Z</time>
      </trkpt>
      <trkpt lat="48.93851" lon="1.87198">
        <ele>150.58</ele>
        <time>2012-05-08T13:49:32Z</time>
      </trkpt>
      <trkpt lat="48.93857" lon="1.87183">
        <ele>147.7</ele>
        <time>2012-05-08T13:49:40Z</time>
      </trkpt>
      <trkpt lat="48.93857" lon="1.87178">
        <ele>146.74</ele>
        <time>2012-05-08T13:49:43Z</time>
      </trkpt>
      <trkpt lat="48.93862" lon="1.87159">
        <ele>144.82</ele>
        <time>2012-05-08T13:49:54Z</time>
      </trkpt>
      <trkpt lat="48.93867" lon="1.87135">
        <ele>146.74</ele>
        <time>2012-05-08T13:50:09Z</time>
      </trkpt>
      <trkpt lat="48.93867" lon="1.87126">
        <ele>148.18</ele>
        <time>2012-05-08T13:50:14Z</time>
      </trkpt>
      <trkpt lat="48.93872" lon="1.871">
        <ele>151.06</ele>
        <time>2012-05-08T13:50:27Z</time>
      </trkpt>
      <trkpt lat="48.93879" lon="1.87081">
        <ele>152.03</ele>
        <time>2012-05-08T13:50:39Z</time>
      </trkpt>
      <trkpt lat="48.93882" lon="1.87067">
        <ele>150.58</ele>
        <time>2012-05-08T13:50:47Z</time>
      </trkpt>
      <trkpt lat="48.93888" lon="1.87045">
        <ele>145.3</ele>
        <time>2012-05-08T13:50:59Z</time>
      </trkpt>
      <trkpt lat="48.93888" lon="1.87042">
        <ele>144.34</ele>
        <time>2012-05-08T13:51:01Z</time>
      </trkpt>
      <trkpt lat="48.93889" lon="1.87026">
        <ele>145.3</ele>
        <time>2012-05-08T13:51:10Z</time>
      </trkpt>
      <trkpt lat="48.93893" lon="1.8702">
        <ele>146.74</ele>
        <time>2012-05-08T13:51:14Z</time>
      </trkpt>
      <trkpt lat="48.93897" lon="1.87006">
        <ele>146.74</ele>
        <time>2012-05-08T13:51:29Z</time>
      </trkpt>
      <trkpt lat="48.93904" lon="1.86992">
        <ele>147.7</ele>
        <time>2012-05-08T13:51:41Z</time>
      </trkpt>
      <trkpt lat="48.93906" lon="1.86986">
        <ele>147.7</ele>
        <time>2012-05-08T13:51:44Z</time>
      </trkpt>
      <trkpt lat="48.93907" lon="1.86974">
        <ele>147.7</ele>
        <time>2012-05-08T13:51:57Z</time>
      </trkpt>
      <trkpt lat="48.93906" lon="1.86973">
        <ele>147.7</ele>
        <time>2012-05-08T13:52:23Z</time>
      </trkpt>
      <trkpt lat="48.93905" lon="1.86973">
        <ele>147.7</ele>
        <time>2012-05-08T13:52:44Z</time>
      </trkpt>
      <trkpt lat="48.93901" lon="1.86969">
        <ele>149.14</ele>
        <time>2012-05-08T13:52:57Z</time>
      </trkpt>
      <trkpt lat="48.93898" lon="1.86967">
        <ele>150.1</ele>
        <time>2012-05-08T13:53:04Z</time>
      </trkpt>
      <trkpt lat="48.93889" lon="1.86971">
        <ele>150.58</ele>
        <time>2012-05-08T13:53:16Z</time>
      </trkpt>
      <trkpt lat="48.93874" lon="1.8697">
        <ele>149.62</ele>
        <time>2012-05-08T13:53:27Z</time>
      </trkpt>
      <trkpt lat="48.93862" lon="1.86972">
        <ele>149.62</ele>
        <time>2012-05-08T13:53:40Z</time>
      </trkpt>
      <trkpt lat="48.93862" lon="1.86972">
        <ele>149.62</ele>
        <time>2012-05-08T13:53:43Z</time>
      </trkpt>
      <trkpt lat="48.93847" lon="1.86972">
        <ele>148.18</ele>
        <time>2012-05-08T13:53:54Z</time>
      </trkpt>
      <trkpt lat="48.93834" lon="1.86972">
        <ele>148.66</ele>
        <time>2012-05-08T13:54:04Z</time>
      </trkpt>
      <trkpt lat="48.9382" lon="1.86962">
        <ele>150.1</ele>
        <time>2012-05-08T13:54:17Z</time>
      </trkpt>
      <trkpt lat="48.93817" lon="1.86957">
        <ele>150.58</ele>
        <time>2012-05-08T13:54:29Z</time>
      </trkpt>
      <trkpt lat="48.93812" lon="1.86952">
        <ele>150.1</ele>
        <time>2012-05-08T13:54:35Z</time>
      </trkpt>
      <trkpt lat="48.93804" lon="1.86945">
        <ele>149.62</ele>
        <time>2012-05-08T13:54:48Z</time>
      </trkpt>
      <trkpt lat="48.93793" lon="1.86934">
        <ele>150.58</ele>
        <time>2012-05-08T13:55:01Z</time>
      </trkpt>
      <trkpt lat="48.93781" lon="1.8692">
        <ele>152.51</ele>
        <time>2012-05-08T13:55:15Z</time>
      </trkpt>
      <trkpt lat="48.93767" lon="1.86918">
        <ele>153.47</ele>
        <time>2012-05-08T13:55:28Z</time>
      </trkpt>
      <trkpt lat="48.93747" lon="1.86927">
        <ele>152.03</ele>
        <time>2012-05-08T13:55:41Z</time>
      </trkpt>
      <trkpt lat="48.93736" lon="1.86931">
        <ele>150.1</ele>
        <time>2012-05-08T13:55:48Z</time>
      </trkpt>
      <trkpt lat="48.93729" lon="1.86932">
        <ele>147.7</ele>
        <time>2012-05-08T13:55:53Z</time>
      </trkpt>
      <trkpt lat="48.93721" lon="1.86937">
        <ele>144.82</ele>
        <time>2012-05-08T13:56:03Z</time>
      </trkpt>
      <trkpt lat="48.9372" lon="1.86928">
        <ele>149.62</ele>
        <time>2012-05-08T13:56:16Z</time>
      </trkpt>
      <trkpt lat="48.93718" lon="1.86924">
        <ele>151.06</ele>
        <time>2012-05-08T13:56:20Z</time>
      </trkpt>
      <trkpt lat="48.93716" lon="1.86921">
        <ele>151.54</ele>
        <time>2012-05-08T13:56:38Z</time>
      </trkpt>
      <trkpt lat="48.93714" lon="1.86919">
        <ele>150.58</ele>
        <time>2012-05-08T13:56:44Z</time>
      </trkpt>
      <trkpt lat="48.93703" lon="1.86905">
        <ele>150.1</ele>
        <time>2012-05-08T13:56:56Z</time>
      </trkpt>
      <trkpt lat="48.93701" lon="1.86905">
        <ele>150.58</ele>
        <time>2012-05-08T13:57:14Z</time>
      </trkpt>
      <trkpt lat="48.93696" lon="1.86896">
        <ele>150.1</ele>
        <time>2012-05-08T13:57:20Z</time>
      </trkpt>
      <trkpt lat="48.93689" lon="1.86883">
        <ele>146.74</ele>
        <time>2012-05-08T13:57:29Z</time>
      </trkpt>
      <trkpt lat="48.93689" lon="1.86877">
        <ele>144.82</ele>
        <time>2012-05-08T13:57:33Z</time>
      </trkpt>
      <trkpt lat="48.93696" lon="1.86867">
        <ele>142.89</ele>
        <time>2012-05-08T13:57:46Z</time>
      </trkpt>
      <trkpt lat="48.93701" lon="1.86856">
        <ele>140.97</ele>
        <time>2012-05-08T13:57:53Z</time>
      </trkpt>
      <trkpt lat="48.93703" lon="1.8685">
        <ele>140.97</ele>
        <time>2012-05-08T13:57:58Z</time>
      </trkpt>
      <trkpt lat="48.93712" lon="1.86836">
        <ele>139.53</ele>
        <time>2012-05-08T13:58:09Z</time>
      </trkpt>
      <trkpt lat="48.93716" lon="1.86824">
        <ele>137.13</ele>
        <time>2012-05-08T13:58:16Z</time>
      </trkpt>
      <trkpt lat="48.93719" lon="1.86822">
        <ele>136.16</ele>
        <time>2012-05-08T13:58:18Z</time>
      </trkpt>
      <trkpt lat="48.93725" lon="1.86811">
        <ele>134.72</ele>
        <time>2012-05-08T13:58:26Z</time>
      </trkpt>
      <trkpt lat="48.93734" lon="1.86783">
        <ele>127.51</ele>
        <time>2012-05-08T13:58:40Z</time>
      </trkpt>
      <trkpt lat="48.93735" lon="1.8678">
        <ele>127.03</ele>
        <time>2012-05-08T13:58:42Z</time>
      </trkpt>
      <trkpt lat="48.93742" lon="1.86755">
        <ele>125.59</ele>
        <time>2012-05-08T13:58:55Z</time>
      </trkpt>
      <trkpt lat="48.93746" lon="1.86741">
        <ele>126.07</ele>
        <time>2012-05-08T13:59:03Z</time>
      </trkpt>
      <trkpt lat="48.93753" lon="1.86722">
        <ele>124.63</ele>
        <time>2012-05-08T13:59:15Z</time>
      </trkpt>
      <trkpt lat="48.93755" lon="1.86715">
        <ele>122.71</ele>
        <time>2012-05-08T13:59:19Z</time>
      </trkpt>
      <trkpt lat="48.9376" lon="1.86699">
        <ele>119.82</ele>
        <time>2012-05-08T13:59:33Z</time>
      </trkpt>
      <trkpt lat="48.93765" lon="1.86684">
        <ele>119.82</ele>
        <time>2012-05-08T13:59:47Z</time>
      </trkpt>
      <trkpt lat="48.93765" lon="1.86684">
        <ele>119.82</ele>
        <time>2012-05-08T13:59:51Z</time>
      </trkpt>
      <trkpt lat="48.93769" lon="1.86678">
        <ele>120.3</ele>
        <time>2012-05-08T13:59:56Z</time>
      </trkpt>
      <trkpt lat="48.93772" lon="1.86675">
        <ele>120.3</ele>
        <time>2012-05-08T13:59:59Z</time>
      </trkpt>
      <trkpt lat="48.93782" lon="1.86662">
        <ele>121.74</ele>
        <time>2012-05-08T14:00:10Z</time>
      </trkpt>
      <trkpt lat="48.93786" lon="1.86654">
        <ele>122.71</ele>
        <time>2012-05-08T14:00:16Z</time>
      </trkpt>
      <trkpt lat="48.93795" lon="1.86645">
        <ele>122.71</ele>
        <time>2012-05-08T14:00:23Z</time>
      </trkpt>
      <trkpt lat="48.93802" lon="1.86633">
        <ele>121.26</ele>
        <time>2012-05-08T14:00:31Z</time>
      </trkpt>
      <trkpt lat="48.93811" lon="1.86611">
        <ele>121.74</ele>
        <time>2012-05-08T14:00:45Z</time>
      </trkpt>
      <trkpt lat="48.93819" lon="1.86603">
        <ele>123.19</ele>
        <time>2012-05-08T14:00:53Z</time>
      </trkpt>
      <trkpt lat="48.93827" lon="1.86586">
        <ele>123.19</ele>
        <time>2012-05-08T14:01:05Z</time>
      </trkpt>
      <trkpt lat="48.93829" lon="1.86583">
        <ele>123.67</ele>
        <time>2012-05-08T14:01:07Z</time>
      </trkpt>
      <trkpt lat="48.9384" lon="1.86563">
        <ele>121.74</ele>
        <time>2012-05-08T14:01:20Z</time>
      </trkpt>
      <trkpt lat="48.93855" lon="1.8655">
        <ele>120.3</ele>
        <time>2012-05-08T14:01:36Z</time>
      </trkpt>
      <trkpt lat="48.93863" lon="1.86531">
        <ele>117.9</ele>
        <time>2012-05-08T14:01:51Z</time>
      </trkpt>
      <trkpt lat="48.93867" lon="1.86527">
        <ele>119.34</ele>
        <time>2012-05-08T14:01:54Z</time>
      </trkpt>
      <trkpt lat="48.93879" lon="1.86515">
        <ele>120.78</ele>
        <time>2012-05-08T14:02:03Z</time>
      </trkpt>
      <trkpt lat="48.93886" lon="1.86506">
        <ele>121.74</ele>
        <time>2012-05-08T14:02:10Z</time>
      </trkpt>
      <trkpt lat="48.939" lon="1.86482">
        <ele>123.67</ele>
        <time>2012-05-08T14:02:26Z</time>
      </trkpt>
      <trkpt lat="48.93911" lon="1.8646">
        <ele>125.11</ele>
        <time>2012-05-08T14:02:41Z</time>
      </trkpt>
      <trkpt lat="48.93911" lon="1.86458">
        <ele>125.11</ele>
        <time>2012-05-08T14:02:43Z</time>
      </trkpt>
      <trkpt lat="48.93909" lon="1.86457">
        <ele>125.59</ele>
        <time>2012-05-08T14:03:00Z</time>
      </trkpt>
      <trkpt lat="48.93911" lon="1.86456">
        <ele>127.03</ele>
        <time>2012-05-08T14:03:30Z</time>
      </trkpt>
      <trkpt lat="48.93927" lon="1.86443">
        <ele>130.88</ele>
        <time>2012-05-08T14:03:46Z</time>
      </trkpt>
      <trkpt lat="48.93934" lon="1.86438">
        <ele>132.32</ele>
        <time>2012-05-08T14:03:52Z</time>
      </trkpt>
      <trkpt lat="48.93939" lon="1.86436">
        <ele>132.8</ele>
        <time>2012-05-08T14:03:57Z</time>
      </trkpt>
      <trkpt lat="48.93956" lon="1.86419">
        <ele>133.76</ele>
        <time>2012-05-08T14:04:14Z</time>
      </trkpt>
      <trkpt lat="48.93973" lon="1.86407">
        <ele>134.24</ele>
        <time>2012-05-08T14:04:29Z</time>
      </trkpt>
      <trkpt lat="48.93992" lon="1.86397">
        <ele>132.8</ele>
        <time>2012-05-08T14:04:45Z</time>
      </trkpt>
      <trkpt lat="48.94008" lon="1.86389">
        <ele>133.76</ele>
        <time>2012-05-08T14:04:59Z</time>
      </trkpt>
      <trkpt lat="48.94027" lon="1.86379">
        <ele>133.76</ele>
        <time>2012-05-08T14:05:15Z</time>
      </trkpt>
      <trkpt lat="48.94048" lon="1.8637">
        <ele>133.76</ele>
        <time>2012-05-08T14:05:32Z</time>
      </trkpt>
      <trkpt lat="48.9406" lon="1.86364">
        <ele>133.76</ele>
        <time>2012-05-08T14:05:42Z</time>
      </trkpt>
      <trkpt lat="48.94078" lon="1.86345">
        <ele>135.2</ele>
        <time>2012-05-08T14:05:59Z</time>
      </trkpt>
      <trkpt lat="48.9409" lon="1.86323">
        <ele>133.28</ele>
        <time>2012-05-08T14:06:14Z</time>
      </trkpt>
      <trkpt lat="48.9409" lon="1.86322">
        <ele>133.28</ele>
        <time>2012-05-08T14:06:15Z</time>
      </trkpt>
      <trkpt lat="48.94095" lon="1.86317">
        <ele>131.36</ele>
        <time>2012-05-08T14:06:30Z</time>
      </trkpt>
      <trkpt lat="48.94105" lon="1.86306">
        <ele>130.4</ele>
        <time>2012-05-08T14:06:44Z</time>
      </trkpt>
      <trkpt lat="48.94121" lon="1.86292">
        <ele>128.95</ele>
        <time>2012-05-08T14:06:59Z</time>
      </trkpt>
      <trkpt lat="48.94132" lon="1.86287">
        <ele>126.07</ele>
        <time>2012-05-08T14:07:10Z</time>
      </trkpt>
      <trkpt lat="48.9415" lon="1.86278">
        <ele>126.55</ele>
        <time>2012-05-08T14:07:25Z</time>
      </trkpt>
      <trkpt lat="48.94167" lon="1.86285">
        <ele>127.99</ele>
        <time>2012-05-08T14:07:38Z</time>
      </trkpt>
      <trkpt lat="48.94184" lon="1.86299">
        <ele>130.88</ele>
        <time>2012-05-08T14:07:52Z</time>
      </trkpt>
      <trkpt lat="48.94203" lon="1.86309">
        <ele>133.76</ele>
        <time>2012-05-08T14:08:08Z</time>
      </trkpt>
      <trkpt lat="48.94218" lon="1.86319">
        <ele>136.16</ele>
        <time>2012-05-08T14:08:22Z</time>
      </trkpt>
      <trkpt lat="48.94238" lon="1.86321">
        <ele>134.24</ele>
        <time>2012-05-08T14:08:40Z</time>
      </trkpt>
      <trkpt lat="48.94238" lon="1.8632">
        <ele>134.72</ele>
        <time>2012-05-08T14:08:41Z</time>
      </trkpt>
      <trkpt lat="48.94229" lon="1.86312">
        <ele>134.24</ele>
        <time>2012-05-08T14:08:54Z</time>
      </trkpt>
      <trkpt lat="48.94233" lon="1.86312">
        <ele>132.8</ele>
        <time>2012-05-08T14:09:01Z</time>
      </trkpt>
      <trkpt lat="48.94247" lon="1.86326">
        <ele>130.4</ele>
        <time>2012-05-08T14:09:15Z</time>
      </trkpt>
      <trkpt lat="48.9426" lon="1.86335">
        <ele>131.84</ele>
        <time>2012-05-08T14:09:30Z</time>
      </trkpt>
      <trkpt lat="48.94261" lon="1.86336">
        <ele>132.32</ele>
        <time>2012-05-08T14:09:32Z</time>
      </trkpt>
      <trkpt lat="48.94244" lon="1.86324">
        <ele>133.28</ele>
        <time>2012-05-08T14:09:48Z</time>
      </trkpt>
      <trkpt lat="48.94238" lon="1.86316">
        <ele>133.28</ele>
        <time>2012-05-08T14:09:56Z</time>
      </trkpt>
      <trkpt lat="48.94242" lon="1.86287">
        <ele>130.4</ele>
        <time>2012-05-08T14:10:14Z</time>
      </trkpt>
      <trkpt lat="48.94246" lon="1.86261">
        <ele>127.03</ele>
        <time>2012-05-08T14:10:29Z</time>
      </trkpt>
      <trkpt lat="48.94251" lon="1.86227">
        <ele>124.63</ele>
        <time>2012-05-08T14:10:48Z</time>
      </trkpt>
      <trkpt lat="48.94252" lon="1.86202">
        <ele>122.71</ele>
        <time>2012-05-08T14:11:01Z</time>
      </trkpt>
      <trkpt lat="48.94254" lon="1.86197">
        <ele>122.71</ele>
        <time>2012-05-08T14:11:04Z</time>
      </trkpt>
      <trkpt lat="48.94253" lon="1.86183">
        <ele>122.71</ele>
        <time>2012-05-08T14:11:12Z</time>
      </trkpt>
      <trkpt lat="48.94255" lon="1.86153">
        <ele>122.22</ele>
        <time>2012-05-08T14:11:28Z</time>
      </trkpt>
      <trkpt lat="48.94258" lon="1.8614">
        <ele>121.26</ele>
        <time>2012-05-08T14:11:40Z</time>
      </trkpt>
      <trkpt lat="48.9426" lon="1.8613">
        <ele>120.78</ele>
        <time>2012-05-08T14:11:45Z</time>
      </trkpt>
      <trkpt lat="48.94261" lon="1.86127">
        <ele>120.3</ele>
        <time>2012-05-08T14:11:47Z</time>
      </trkpt>
      <trkpt lat="48.94265" lon="1.86095">
        <ele>117.9</ele>
        <time>2012-05-08T14:12:05Z</time>
      </trkpt>
      <trkpt lat="48.94265" lon="1.86081">
        <ele>117.42</ele>
        <time>2012-05-08T14:12:17Z</time>
      </trkpt>
      <trkpt lat="48.94267" lon="1.86052">
        <ele>115.5</ele>
        <time>2012-05-08T14:12:32Z</time>
      </trkpt>
      <trkpt lat="48.9427" lon="1.86025">
        <ele>114.53</ele>
        <time>2012-05-08T14:12:47Z</time>
      </trkpt>
      <trkpt lat="48.94275" lon="1.85994">
        <ele>111.65</ele>
        <time>2012-05-08T14:13:04Z</time>
      </trkpt>
      <trkpt lat="48.94277" lon="1.85979">
        <ele>110.21</ele>
        <time>2012-05-08T14:13:19Z</time>
      </trkpt>
      <trkpt lat="48.94281" lon="1.8596">
        <ele>110.69</ele>
        <time>2012-05-08T14:13:32Z</time>
      </trkpt>
      <trkpt lat="48.94286" lon="1.85929">
        <ele>109.73</ele>
        <time>2012-05-08T14:13:49Z</time>
      </trkpt>
      <trkpt lat="48.94291" lon="1.859">
        <ele>109.73</ele>
        <time>2012-05-08T14:14:05Z</time>
      </trkpt>
      <trkpt lat="48.94298" lon="1.85865">
        <ele>108.29</ele>
        <time>2012-05-08T14:14:24Z</time>
      </trkpt>
      <trkpt lat="48.94303" lon="1.85833">
        <ele>107.32</ele>
        <time>2012-05-08T14:14:41Z</time>
      </trkpt>
      <trkpt lat="48.94308" lon="1.85795">
        <ele>105.88</ele>
        <time>2012-05-08T14:15:01Z</time>
      </trkpt>
      <trkpt lat="48.94313" lon="1.85765">
        <ele>103</ele>
        <time>2012-05-08T14:15:18Z</time>
      </trkpt>
      <trkpt lat="48.94317" lon="1.85736">
        <ele>104.44</ele>
        <time>2012-05-08T14:15:34Z</time>
      </trkpt>
      <trkpt lat="48.94321" lon="1.857">
        <ele>105.4</ele>
        <time>2012-05-08T14:15:53Z</time>
      </trkpt>
      <trkpt lat="48.94328" lon="1.85671">
        <ele>103.96</ele>
        <time>2012-05-08T14:16:10Z</time>
      </trkpt>
      <trkpt lat="48.94345" lon="1.85667">
        <ele>103</ele>
        <time>2012-05-08T14:16:25Z</time>
      </trkpt>
      <trkpt lat="48.94362" lon="1.85674">
        <ele>102.04</ele>
        <time>2012-05-08T14:16:39Z</time>
      </trkpt>
      <trkpt lat="48.94367" lon="1.85677">
        <ele>102.04</ele>
        <time>2012-05-08T14:16:43Z</time>
      </trkpt>
      <trkpt lat="48.94389" lon="1.85688">
        <ele>101.56</ele>
        <time>2012-05-08T14:17:02Z</time>
      </trkpt>
      <trkpt lat="48.9441" lon="1.85696">
        <ele>102.04</ele>
        <time>2012-05-08T14:17:19Z</time>
      </trkpt>
      <trkpt lat="48.94434" lon="1.85702">
        <ele>103</ele>
        <time>2012-05-08T14:17:39Z</time>
      </trkpt>
      <trkpt lat="48.94437" lon="1.85702">
        <ele>103</ele>
        <time>2012-05-08T14:17:41Z</time>
      </trkpt>
      <trkpt lat="48.94438" lon="1.85704">
        <ele>103</ele>
        <time>2012-05-08T14:17:43Z</time>
      </trkpt>
      <trkpt lat="48.94441" lon="1.85705">
        <ele>103.48</ele>
        <time>2012-05-08T14:17:58Z</time>
      </trkpt>
      <trkpt lat="48.94441" lon="1.85705">
        <ele>103.48</ele>
        <time>2012-05-08T14:18:11Z</time>
      </trkpt>
      <trkpt lat="48.94449" lon="1.85708">
        <ele>103.96</ele>
        <time>2012-05-08T14:18:19Z</time>
      </trkpt>
      <trkpt lat="48.94454" lon="1.85705">
        <ele>103.96</ele>
        <time>2012-05-08T14:18:24Z</time>
      </trkpt>
      <trkpt lat="48.94469" lon="1.85716">
        <ele>105.88</ele>
        <time>2012-05-08T14:18:39Z</time>
      </trkpt>
      <trkpt lat="48.94475" lon="1.85716">
        <ele>106.84</ele>
        <time>2012-05-08T14:18:56Z</time>
      </trkpt>
      <trkpt lat="48.94473" lon="1.85715">
        <ele>107.32</ele>
        <time>2012-05-08T14:19:13Z</time>
      </trkpt>
      <trkpt lat="48.9447" lon="1.85713">
        <ele>106.84</ele>
        <time>2012-05-08T14:19:45Z</time>
      </trkpt>
      <trkpt lat="48.94469" lon="1.85713">
        <ele>107.32</ele>
        <time>2012-05-08T14:19:46Z</time>
      </trkpt>
      <trkpt lat="48.94465" lon="1.85711">
        <ele>107.81</ele>
        <time>2012-05-08T14:20:04Z</time>
      </trkpt>
      <trkpt lat="48.94459" lon="1.85705">
        <ele>106.36</ele>
        <time>2012-05-08T14:20:21Z</time>
      </trkpt>
      <trkpt lat="48.94444" lon="1.85703">
        <ele>104.44</ele>
        <time>2012-05-08T14:20:33Z</time>
      </trkpt>
      <trkpt lat="48.94422" lon="1.85695">
        <ele>102.52</ele>
        <time>2012-05-08T14:20:50Z</time>
      </trkpt>
      <trkpt lat="48.94404" lon="1.85689">
        <ele>102.52</ele>
        <time>2012-05-08T14:21:05Z</time>
      </trkpt>
      <trkpt lat="48.94379" lon="1.85679">
        <ele>103</ele>
        <time>2012-05-08T14:21:24Z</time>
      </trkpt>
      <trkpt lat="48.94366" lon="1.85671">
        <ele>102.52</ele>
        <time>2012-05-08T14:21:36Z</time>
      </trkpt>
      <trkpt lat="48.94345" lon="1.85665">
        <ele>101.56</ele>
        <time>2012-05-08T14:21:53Z</time>
      </trkpt>
      <trkpt lat="48.94329" lon="1.85661">
        <ele>103</ele>
        <time>2012-05-08T14:22:06Z</time>
      </trkpt>
      <trkpt lat="48.94325" lon="1.85666">
        <ele>103</ele>
        <time>2012-05-08T14:22:11Z</time>
      </trkpt>
      <trkpt lat="48.94309" lon="1.85653">
        <ele>103.96</ele>
        <time>2012-05-08T14:22:27Z</time>
      </trkpt>
      <trkpt lat="48.9429" lon="1.85644">
        <ele>104.44</ele>
        <time>2012-05-08T14:22:42Z</time>
      </trkpt>
      <trkpt lat="48.94269" lon="1.85634">
        <ele>103.96</ele>
        <time>2012-05-08T14:22:59Z</time>
      </trkpt>
      <trkpt lat="48.94253" lon="1.85625">
        <ele>103.48</ele>
        <time>2012-05-08T14:23:13Z</time>
      </trkpt>
      <trkpt lat="48.9424" lon="1.8562">
        <ele>101.56</ele>
        <time>2012-05-08T14:23:27Z</time>
      </trkpt>
      <trkpt lat="48.94228" lon="1.85612">
        <ele>101.56</ele>
        <time>2012-05-08T14:23:40Z</time>
      </trkpt>
      <trkpt lat="48.94221" lon="1.85608">
        <ele>102.52</ele>
        <time>2012-05-08T14:23:57Z</time>
      </trkpt>
      <trkpt lat="48.94219" lon="1.85609">
        <ele>102.52</ele>
        <time>2012-05-08T14:24:02Z</time>
      </trkpt>
      <trkpt lat="48.94239" lon="1.85618">
        <ele>103.96</ele>
        <time>2012-05-08T14:24:20Z</time>
      </trkpt>
      <trkpt lat="48.94239" lon="1.85617">
        <ele>104.44</ele>
        <time>2012-05-08T14:24:23Z</time>
      </trkpt>
      <trkpt lat="48.94236" lon="1.85611">
        <ele>103.48</ele>
        <time>2012-05-08T14:24:31Z</time>
      </trkpt>
      <trkpt lat="48.94245" lon="1.85599">
        <ele>102.52</ele>
        <time>2012-05-08T14:24:41Z</time>
      </trkpt>
      <trkpt lat="48.94257" lon="1.8557">
        <ele>101.56</ele>
        <time>2012-05-08T14:24:58Z</time>
      </trkpt>
      <trkpt lat="48.94264" lon="1.85557">
        <ele>101.08</ele>
        <time>2012-05-08T14:25:07Z</time>
      </trkpt>
      <trkpt lat="48.94266" lon="1.85553">
        <ele>100.11</ele>
        <time>2012-05-08T14:25:10Z</time>
      </trkpt>
      <trkpt lat="48.94266" lon="1.8555">
        <ele>99.63</ele>
        <time>2012-05-08T14:25:18Z</time>
      </trkpt>
      <trkpt lat="48.94274" lon="1.85541">
        <ele>99.15</ele>
        <time>2012-05-08T14:25:26Z</time>
      </trkpt>
      <trkpt lat="48.94274" lon="1.85537">
        <ele>99.15</ele>
        <time>2012-05-08T14:25:33Z</time>
      </trkpt>
      <trkpt lat="48.94277" lon="1.85535">
        <ele>98.19</ele>
        <time>2012-05-08T14:25:36Z</time>
      </trkpt>
      <trkpt lat="48.94288" lon="1.85523">
        <ele>98.19</ele>
        <time>2012-05-08T14:25:46Z</time>
      </trkpt>
      <trkpt lat="48.94306" lon="1.85504">
        <ele>98.19</ele>
        <time>2012-05-08T14:26:04Z</time>
      </trkpt>
      <trkpt lat="48.9433" lon="1.85489">
        <ele>94.83</ele>
        <time>2012-05-08T14:26:23Z</time>
      </trkpt>
      <trkpt lat="48.9435" lon="1.85482">
        <ele>92.9</ele>
        <time>2012-05-08T14:26:40Z</time>
      </trkpt>
      <trkpt lat="48.9436" lon="1.85472">
        <ele>91.94</ele>
        <time>2012-05-08T14:26:50Z</time>
      </trkpt>
      <trkpt lat="48.94374" lon="1.85455">
        <ele>93.87</ele>
        <time>2012-05-08T14:27:06Z</time>
      </trkpt>
      <trkpt lat="48.94375" lon="1.85453">
        <ele>94.35</ele>
        <time>2012-05-08T14:27:08Z</time>
      </trkpt>
      <trkpt lat="48.94379" lon="1.85443">
        <ele>94.83</ele>
        <time>2012-05-08T14:27:16Z</time>
      </trkpt>
      <trkpt lat="48.9438" lon="1.85435">
        <ele>95.31</ele>
        <time>2012-05-08T14:27:31Z</time>
      </trkpt>
      <trkpt lat="48.94382" lon="1.85435">
        <ele>95.79</ele>
        <time>2012-05-08T14:27:42Z</time>
      </trkpt>
      <trkpt lat="48.94394" lon="1.85434">
        <ele>99.15</ele>
        <time>2012-05-08T14:27:56Z</time>
      </trkpt>
      <trkpt lat="48.94413" lon="1.85435">
        <ele>100.11</ele>
        <time>2012-05-08T14:28:12Z</time>
      </trkpt>
      <trkpt lat="48.94429" lon="1.85431">
        <ele>103.48</ele>
        <time>2012-05-08T14:28:26Z</time>
      </trkpt>
      <trkpt lat="48.94436" lon="1.85429">
        <ele>103</ele>
        <time>2012-05-08T14:28:32Z</time>
      </trkpt>
      <trkpt lat="48.94439" lon="1.85417">
        <ele>102.04</ele>
        <time>2012-05-08T14:28:46Z</time>
      </trkpt>
      <trkpt lat="48.94439" lon="1.85417">
        <ele>102.04</ele>
        <time>2012-05-08T14:29:06Z</time>
      </trkpt>
      <trkpt lat="48.94438" lon="1.85415">
        <ele>101.56</ele>
        <time>2012-05-08T14:29:25Z</time>
      </trkpt>
      <trkpt lat="48.94438" lon="1.85415">
        <ele>101.56</ele>
        <time>2012-05-08T14:29:39Z</time>
      </trkpt>
      <trkpt lat="48.94431" lon="1.8538">
        <ele>100.11</ele>
        <time>2012-05-08T14:29:58Z</time>
      </trkpt>
      <trkpt lat="48.94423" lon="1.85346">
        <ele>98.67</ele>
        <time>2012-05-08T14:30:16Z</time>
      </trkpt>
      <trkpt lat="48.94418" lon="1.85313">
        <ele>97.23</ele>
        <time>2012-05-08T14:30:33Z</time>
      </trkpt>
      <trkpt lat="48.9441" lon="1.85288">
        <ele>95.31</ele>
        <time>2012-05-08T14:30:48Z</time>
      </trkpt>
      <trkpt lat="48.94402" lon="1.85254">
        <ele>96.75</ele>
        <time>2012-05-08T14:31:07Z</time>
      </trkpt>
      <trkpt lat="48.94392" lon="1.85225">
        <ele>96.75</ele>
        <time>2012-05-08T14:31:24Z</time>
      </trkpt>
      <trkpt lat="48.94383" lon="1.85199">
        <ele>97.23</ele>
        <time>2012-05-08T14:31:40Z</time>
      </trkpt>
      <trkpt lat="48.94375" lon="1.85175">
        <ele>97.23</ele>
        <time>2012-05-08T14:31:54Z</time>
      </trkpt>
      <trkpt lat="48.94368" lon="1.85149">
        <ele>96.27</ele>
        <time>2012-05-08T14:32:09Z</time>
      </trkpt>
      <trkpt lat="48.94361" lon="1.8513">
        <ele>96.27</ele>
        <time>2012-05-08T14:32:22Z</time>
      </trkpt>
      <trkpt lat="48.9436" lon="1.85128">
        <ele>96.75</ele>
        <time>2012-05-08T14:32:34Z</time>
      </trkpt>
      <trkpt lat="48.94354" lon="1.85113">
        <ele>96.75</ele>
        <time>2012-05-08T14:32:46Z</time>
      </trkpt>
      <trkpt lat="48.94353" lon="1.85106">
        <ele>96.75</ele>
        <time>2012-05-08T14:32:50Z</time>
      </trkpt>
      <trkpt lat="48.94349" lon="1.8509">
        <ele>96.27</ele>
        <time>2012-05-08T14:33:05Z</time>
      </trkpt>
      <trkpt lat="48.94339" lon="1.85059">
        <ele>95.79</ele>
        <time>2012-05-08T14:33:23Z</time>
      </trkpt>
      <trkpt lat="48.94329" lon="1.85035">
        <ele>94.83</ele>
        <time>2012-05-08T14:33:38Z</time>
      </trkpt>
      <trkpt lat="48.94319" lon="1.85009">
        <ele>92.9</ele>
        <time>2012-05-08T14:33:55Z</time>
      </trkpt>
      <trkpt lat="48.94309" lon="1.84981">
        <ele>93.87</ele>
        <time>2012-05-08T14:34:12Z</time>
      </trkpt>
      <trkpt lat="48.94301" lon="1.84959">
        <ele>93.87</ele>
        <time>2012-05-08T14:34:26Z</time>
      </trkpt>
      <trkpt lat="48.943" lon="1.84956">
        <ele>94.35</ele>
        <time>2012-05-08T14:34:28Z</time>
      </trkpt>
      <trkpt lat="48.9429" lon="1.84929">
        <ele>95.79</ele>
        <time>2012-05-08T14:34:45Z</time>
      </trkpt>
      <trkpt lat="48.94288" lon="1.84919">
        <ele>95.79</ele>
        <time>2012-05-08T14:34:51Z</time>
      </trkpt>
      <trkpt lat="48.94279" lon="1.84896">
        <ele>95.79</ele>
        <time>2012-05-08T14:35:07Z</time>
      </trkpt>
      <trkpt lat="48.9427" lon="1.84872">
        <ele>95.79</ele>
        <time>2012-05-08T14:35:22Z</time>
      </trkpt>
      <trkpt lat="48.94263" lon="1.84852">
        <ele>96.75</ele>
        <time>2012-05-08T14:35:34Z</time>
      </trkpt>
      <trkpt lat="48.94258" lon="1.84838">
        <ele>97.71</ele>
        <time>2012-05-08T14:35:42Z</time>
      </trkpt>
      <trkpt lat="48.94248" lon="1.84817">
        <ele>97.23</ele>
        <time>2012-05-08T14:35:57Z</time>
      </trkpt>
      <trkpt lat="48.94244" lon="1.84811">
        <ele>97.71</ele>
        <time>2012-05-08T14:36:10Z</time>
      </trkpt>
      <trkpt lat="48.94235" lon="1.84799">
        <ele>97.23</ele>
        <time>2012-05-08T14:36:21Z</time>
      </trkpt>
      <trkpt lat="48.94228" lon="1.84793">
        <ele>98.67</ele>
        <time>2012-05-08T14:36:25Z</time>
      </trkpt>
      <trkpt lat="48.94219" lon="1.84779">
        <ele>100.6</ele>
        <time>2012-05-08T14:36:36Z</time>
      </trkpt>
      <trkpt lat="48.94209" lon="1.84763">
        <ele>100.11</ele>
        <time>2012-05-08T14:36:47Z</time>
      </trkpt>
      <trkpt lat="48.94199" lon="1.84748">
        <ele>98.67</ele>
        <time>2012-05-08T14:37:02Z</time>
      </trkpt>
      <trkpt lat="48.94189" lon="1.84734">
        <ele>97.71</ele>
        <time>2012-05-08T14:37:15Z</time>
      </trkpt>
      <trkpt lat="48.94178" lon="1.84707">
        <ele>96.27</ele>
        <time>2012-05-08T14:37:31Z</time>
      </trkpt>
      <trkpt lat="48.94172" lon="1.84696">
        <ele>95.79</ele>
        <time>2012-05-08T14:37:46Z</time>
      </trkpt>
      <trkpt lat="48.94163" lon="1.84681">
        <ele>93.87</ele>
        <time>2012-05-08T14:38:00Z</time>
      </trkpt>
      <trkpt lat="48.94156" lon="1.84655">
        <ele>93.39</ele>
        <time>2012-05-08T14:38:15Z</time>
      </trkpt>
      <trkpt lat="48.94148" lon="1.84626">
        <ele>93.87</ele>
        <time>2012-05-08T14:38:31Z</time>
      </trkpt>
      <trkpt lat="48.94135" lon="1.84598">
        <ele>96.27</ele>
        <time>2012-05-08T14:38:50Z</time>
      </trkpt>
      <trkpt lat="48.94133" lon="1.84596">
        <ele>96.27</ele>
        <time>2012-05-08T14:38:55Z</time>
      </trkpt>
      <trkpt lat="48.9412" lon="1.84566">
        <ele>95.31</ele>
        <time>2012-05-08T14:39:12Z</time>
      </trkpt>
      <trkpt lat="48.94107" lon="1.84542">
        <ele>95.79</ele>
        <time>2012-05-08T14:39:28Z</time>
      </trkpt>
      <trkpt lat="48.94096" lon="1.84512">
        <ele>94.83</ele>
        <time>2012-05-08T14:39:45Z</time>
      </trkpt>
      <trkpt lat="48.94095" lon="1.8448">
        <ele>92.42</ele>
        <time>2012-05-08T14:40:01Z</time>
      </trkpt>
      <trkpt lat="48.94095" lon="1.84477">
        <ele>91.94</ele>
        <time>2012-05-08T14:40:03Z</time>
      </trkpt>
      <trkpt lat="48.94106" lon="1.84471">
        <ele>94.83</ele>
        <time>2012-05-08T14:40:18Z</time>
      </trkpt>
      <trkpt lat="48.94116" lon="1.84465">
        <ele>97.71</ele>
        <time>2012-05-08T14:40:32Z</time>
      </trkpt>
      <trkpt lat="48.9412" lon="1.84463">
        <ele>97.23</ele>
        <time>2012-05-08T14:41:00Z</time>
      </trkpt>
      <trkpt lat="48.94134" lon="1.84455">
        <ele>97.23</ele>
        <time>2012-05-08T14:41:16Z</time>
      </trkpt>
      <trkpt lat="48.94147" lon="1.84456">
        <ele>101.08</ele>
        <time>2012-05-08T14:41:29Z</time>
      </trkpt>
      <trkpt lat="48.94151" lon="1.84457">
        <ele>102.04</ele>
        <time>2012-05-08T14:41:32Z</time>
      </trkpt>
      <trkpt lat="48.94166" lon="1.84459">
        <ele>105.4</ele>
        <time>2012-05-08T14:41:46Z</time>
      </trkpt>
      <trkpt lat="48.94191" lon="1.84472">
        <ele>107.81</ele>
        <time>2012-05-08T14:42:06Z</time>
      </trkpt>
      <trkpt lat="48.94209" lon="1.84485">
        <ele>106.36</ele>
        <time>2012-05-08T14:42:22Z</time>
      </trkpt>
      <trkpt lat="48.94213" lon="1.8449">
        <ele>106.36</ele>
        <time>2012-05-08T14:42:26Z</time>
      </trkpt>
      <trkpt lat="48.94225" lon="1.84515">
        <ele>104.92</ele>
        <time>2012-05-08T14:42:43Z</time>
      </trkpt>
      <trkpt lat="48.94237" lon="1.84536">
        <ele>105.4</ele>
        <time>2012-05-08T14:42:57Z</time>
      </trkpt>
      <trkpt lat="48.94249" lon="1.84559">
        <ele>105.4</ele>
        <time>2012-05-08T14:43:13Z</time>
      </trkpt>
      <trkpt lat="48.94259" lon="1.84587">
        <ele>104.92</ele>
        <time>2012-05-08T14:43:29Z</time>
      </trkpt>
      <trkpt lat="48.94267" lon="1.84598">
        <ele>104.92</ele>
        <time>2012-05-08T14:43:38Z</time>
      </trkpt>
      <trkpt lat="48.94276" lon="1.84594">
        <ele>104.92</ele>
        <time>2012-05-08T14:43:45Z</time>
      </trkpt>
      <trkpt lat="48.94284" lon="1.84584">
        <ele>105.4</ele>
        <time>2012-05-08T14:44:00Z</time>
      </trkpt>
      <trkpt lat="48.9429" lon="1.84577">
        <ele>105.4</ele>
        <time>2012-05-08T14:44:12Z</time>
      </trkpt>
      <trkpt lat="48.94303" lon="1.84563">
        <ele>104.92</ele>
        <time>2012-05-08T14:44:28Z</time>
      </trkpt>
      <trkpt lat="48.94308" lon="1.84555">
        <ele>104.92</ele>
        <time>2012-05-08T14:44:43Z</time>
      </trkpt>
      <trkpt lat="48.94326" lon="1.84533">
        <ele>105.4</ele>
        <time>2012-05-08T14:45:01Z</time>
      </trkpt>
      <trkpt lat="48.94341" lon="1.84518">
        <ele>105.4</ele>
        <time>2012-05-08T14:45:16Z</time>
      </trkpt>
      <trkpt lat="48.94355" lon="1.84502">
        <ele>106.84</ele>
        <time>2012-05-08T14:45:31Z</time>
      </trkpt>
      <trkpt lat="48.94372" lon="1.84486">
        <ele>107.32</ele>
        <time>2012-05-08T14:45:47Z</time>
      </trkpt>
      <trkpt lat="48.9438" lon="1.84478">
        <ele>107.81</ele>
        <time>2012-05-08T14:45:55Z</time>
      </trkpt>
      <trkpt lat="48.94395" lon="1.84461">
        <ele>107.32</ele>
        <time>2012-05-08T14:46:12Z</time>
      </trkpt>
      <trkpt lat="48.94406" lon="1.84448">
        <ele>106.84</ele>
        <time>2012-05-08T14:46:29Z</time>
      </trkpt>
      <trkpt lat="48.94423" lon="1.84429">
        <ele>106.84</ele>
        <time>2012-05-08T14:46:46Z</time>
      </trkpt>
      <trkpt lat="48.9444" lon="1.84411">
        <ele>106.84</ele>
        <time>2012-05-08T14:47:03Z</time>
      </trkpt>
      <trkpt lat="48.94459" lon="1.8439">
        <ele>107.32</ele>
        <time>2012-05-08T14:47:23Z</time>
      </trkpt>
      <trkpt lat="48.94474" lon="1.84374">
        <ele>107.81</ele>
        <time>2012-05-08T14:47:39Z</time>
      </trkpt>
      <trkpt lat="48.94498" lon="1.84353">
        <ele>107.81</ele>
        <time>2012-05-08T14:47:59Z</time>
      </trkpt>
      <trkpt lat="48.94518" lon="1.84337">
        <ele>108.29</ele>
        <time>2012-05-08T14:48:17Z</time>
      </trkpt>
      <trkpt lat="48.94538" lon="1.84316">
        <ele>107.32</ele>
        <time>2012-05-08T14:48:36Z</time>
      </trkpt>
      <trkpt lat="48.94559" lon="1.84296">
        <ele>106.84</ele>
        <time>2012-05-08T14:48:55Z</time>
      </trkpt>
      <trkpt lat="48.94577" lon="1.84278">
        <ele>106.36</ele>
        <time>2012-05-08T14:49:12Z</time>
      </trkpt>
      <trkpt lat="48.94585" lon="1.8427">
        <ele>105.88</ele>
        <time>2012-05-08T14:49:26Z</time>
      </trkpt>
      <trkpt lat="48.94585" lon="1.8427">
        <ele>105.88</ele>
        <time>2012-05-08T14:49:36Z</time>
      </trkpt>
      <trkpt lat="48.94598" lon="1.8426">
        <ele>105.4</ele>
        <time>2012-05-08T14:49:49Z</time>
      </trkpt>
      <trkpt lat="48.94605" lon="1.84254">
        <ele>105.88</ele>
        <time>2012-05-08T14:50:06Z</time>
      </trkpt>
      <trkpt lat="48.94615" lon="1.84245">
        <ele>104.92</ele>
        <time>2012-05-08T14:50:18Z</time>
      </trkpt>
      <trkpt lat="48.94616" lon="1.84245">
        <ele>105.4</ele>
        <time>2012-05-08T14:50:42Z</time>
      </trkpt>
      <trkpt lat="48.94616" lon="1.84245">
        <ele>105.4</ele>
        <time>2012-05-08T14:50:43Z</time>
      </trkpt>
      <trkpt lat="48.94628" lon="1.84246">
        <ele>105.4</ele>
        <time>2012-05-08T14:51:00Z</time>
      </trkpt>
      <trkpt lat="48.94628" lon="1.84247">
        <ele>105.4</ele>
        <time>2012-05-08T14:51:04Z</time>
      </trkpt>
      <trkpt lat="48.94642" lon="1.84257">
        <ele>105.4</ele>
        <time>2012-05-08T14:51:17Z</time>
      </trkpt>
      <trkpt lat="48.94646" lon="1.84264">
        <ele>104.44</ele>
        <time>2012-05-08T14:51:24Z</time>
      </trkpt>
      <trkpt lat="48.94658" lon="1.8429">
        <ele>105.88</ele>
        <time>2012-05-08T14:51:40Z</time>
      </trkpt>
      <trkpt lat="48.94668" lon="1.84314">
        <ele>104.92</ele>
        <time>2012-05-08T14:51:56Z</time>
      </trkpt>
      <trkpt lat="48.94676" lon="1.84335">
        <ele>104.92</ele>
        <time>2012-05-08T14:52:08Z</time>
      </trkpt>
      <trkpt lat="48.94686" lon="1.84359">
        <ele>105.88</ele>
        <time>2012-05-08T14:52:22Z</time>
      </trkpt>
      <trkpt lat="48.94688" lon="1.84367">
        <ele>106.36</ele>
        <time>2012-05-08T14:52:26Z</time>
      </trkpt>
      <trkpt lat="48.947" lon="1.844">
        <ele>106.36</ele>
        <time>2012-05-08T14:52:46Z</time>
      </trkpt>
      <trkpt lat="48.94713" lon="1.84434">
        <ele>106.36</ele>
        <time>2012-05-08T14:53:06Z</time>
      </trkpt>
      <trkpt lat="48.94713" lon="1.84435">
        <ele>106.36</ele>
        <time>2012-05-08T14:53:07Z</time>
      </trkpt>
      <trkpt lat="48.94717" lon="1.84434">
        <ele>106.36</ele>
        <time>2012-05-08T14:53:13Z</time>
      </trkpt>
      <trkpt lat="48.94727" lon="1.84464">
        <ele>106.36</ele>
        <time>2012-05-08T14:53:31Z</time>
      </trkpt>
      <trkpt lat="48.94737" lon="1.84497">
        <ele>105.88</ele>
        <time>2012-05-08T14:53:49Z</time>
      </trkpt>
      <trkpt lat="48.94748" lon="1.84529">
        <ele>105.88</ele>
        <time>2012-05-08T14:54:07Z</time>
      </trkpt>
      <trkpt lat="48.94761" lon="1.84561">
        <ele>106.84</ele>
        <time>2012-05-08T14:54:26Z</time>
      </trkpt>
      <trkpt lat="48.94773" lon="1.84593">
        <ele>105.88</ele>
        <time>2012-05-08T14:54:45Z</time>
      </trkpt>
      <trkpt lat="48.94783" lon="1.84619">
        <ele>106.84</ele>
        <time>2012-05-08T14:55:00Z</time>
      </trkpt>
      <trkpt lat="48.94796" lon="1.84638">
        <ele>107.32</ele>
        <time>2012-05-08T14:55:18Z</time>
      </trkpt>
      <trkpt lat="48.94799" lon="1.84636">
        <ele>107.32</ele>
        <time>2012-05-08T14:55:34Z</time>
      </trkpt>
      <trkpt lat="48.94799" lon="1.84636">
        <ele>107.32</ele>
        <time>2012-05-08T14:55:57Z</time>
      </trkpt>
      <trkpt lat="48.94806" lon="1.84633">
        <ele>106.84</ele>
        <time>2012-05-08T14:56:03Z</time>
      </trkpt>
      <trkpt lat="48.94819" lon="1.84624">
        <ele>106.84</ele>
        <time>2012-05-08T14:56:14Z</time>
      </trkpt>
      <trkpt lat="48.94837" lon="1.84614">
        <ele>107.81</ele>
        <time>2012-05-08T14:56:30Z</time>
      </trkpt>
      <trkpt lat="48.94858" lon="1.84604">
        <ele>106.84</ele>
        <time>2012-05-08T14:56:46Z</time>
      </trkpt>
      <trkpt lat="48.9488" lon="1.84592">
        <ele>107.32</ele>
        <time>2012-05-08T14:57:04Z</time>
      </trkpt>
      <trkpt lat="48.9489" lon="1.84586">
        <ele>107.32</ele>
        <time>2012-05-08T14:57:12Z</time>
      </trkpt>
      <trkpt lat="48.94896" lon="1.84578">
        <ele>107.32</ele>
        <time>2012-05-08T14:57:26Z</time>
      </trkpt>
      <trkpt lat="48.94918" lon="1.84568">
        <ele>106.36</ele>
        <time>2012-05-08T14:57:43Z</time>
      </trkpt>
      <trkpt lat="48.9494" lon="1.84555">
        <ele>104.92</ele>
        <time>2012-05-08T14:58:01Z</time>
      </trkpt>
      <trkpt lat="48.94961" lon="1.84543">
        <ele>103.48</ele>
        <time>2012-05-08T14:58:18Z</time>
      </trkpt>
      <trkpt lat="48.94977" lon="1.84528">
        <ele>103</ele>
        <time>2012-05-08T14:58:33Z</time>
      </trkpt>
      <trkpt lat="48.94981" lon="1.8452">
        <ele>103</ele>
        <time>2012-05-08T14:58:41Z</time>
      </trkpt>
      <trkpt lat="48.94978" lon="1.84519">
        <ele>103</ele>
        <time>2012-05-08T14:58:54Z</time>
      </trkpt>
      <trkpt lat="48.94978" lon="1.84519">
        <ele>103</ele>
        <time>2012-05-08T14:59:20Z</time>
      </trkpt>
      <trkpt lat="48.94979" lon="1.84519">
        <ele>103</ele>
        <time>2012-05-08T14:59:39Z</time>
      </trkpt>
      <trkpt lat="48.94991" lon="1.84514">
        <ele>102.52</ele>
        <time>2012-05-08T14:59:49Z</time>
      </trkpt>
      <trkpt lat="48.95011" lon="1.84494">
        <ele>101.08</ele>
        <time>2012-05-08T15:00:07Z</time>
      </trkpt>
      <trkpt lat="48.95022" lon="1.84482">
        <ele>101.08</ele>
        <time>2012-05-08T15:00:19Z</time>
      </trkpt>
      <trkpt lat="48.95036" lon="1.84469">
        <ele>100.11</ele>
        <time>2012-05-08T15:00:30Z</time>
      </trkpt>
      <trkpt lat="48.95046" lon="1.84459">
        <ele>99.63</ele>
        <time>2012-05-08T15:00:39Z</time>
      </trkpt>
      <trkpt lat="48.95054" lon="1.84453">
        <ele>100.6</ele>
        <time>2012-05-08T15:00:47Z</time>
      </trkpt>
      <trkpt lat="48.95064" lon="1.84443">
        <ele>101.08</ele>
        <time>2012-05-08T15:00:56Z</time>
      </trkpt>
      <trkpt lat="48.95075" lon="1.84438">
        <ele>101.56</ele>
        <time>2012-05-08T15:01:04Z</time>
      </trkpt>
      <trkpt lat="48.95088" lon="1.8445">
        <ele>103.48</ele>
        <time>2012-05-08T15:01:19Z</time>
      </trkpt>
      <trkpt lat="48.95096" lon="1.84458">
        <ele>103.48</ele>
        <time>2012-05-08T15:01:47Z</time>
      </trkpt>
      <trkpt lat="48.95111" lon="1.84475">
        <ele>103.96</ele>
        <time>2012-05-08T15:02:01Z</time>
      </trkpt>
      <trkpt lat="48.95129" lon="1.84501">
        <ele>104.92</ele>
        <time>2012-05-08T15:02:20Z</time>
      </trkpt>
      <trkpt lat="48.95146" lon="1.84513">
        <ele>104.44</ele>
        <time>2012-05-08T15:02:35Z</time>
      </trkpt>
      <trkpt lat="48.95164" lon="1.84501">
        <ele>105.4</ele>
        <time>2012-05-08T15:02:50Z</time>
      </trkpt>
      <trkpt lat="48.9517" lon="1.84497">
        <ele>105.4</ele>
        <time>2012-05-08T15:02:55Z</time>
      </trkpt>
      <trkpt lat="48.95174" lon="1.84498">
        <ele>105.88</ele>
        <time>2012-05-08T15:02:58Z</time>
      </trkpt>
      <trkpt lat="48.95178" lon="1.845">
        <ele>106.36</ele>
        <time>2012-05-08T15:03:02Z</time>
      </trkpt>
      <trkpt lat="48.95193" lon="1.84515">
        <ele>107.81</ele>
        <time>2012-05-08T15:03:17Z</time>
      </trkpt>
      <trkpt lat="48.9521" lon="1.84528">
        <ele>106.84</ele>
        <time>2012-05-08T15:03:33Z</time>
      </trkpt>
      <trkpt lat="48.95227" lon="1.84543">
        <ele>105.88</ele>
        <time>2012-05-08T15:03:48Z</time>
      </trkpt>
      <trkpt lat="48.95231" lon="1.8455">
        <ele>105.4</ele>
        <time>2012-05-08T15:04:03Z</time>
      </trkpt>
      <trkpt lat="48.95234" lon="1.8455">
        <ele>105.88</ele>
        <time>2012-05-08T15:04:23Z</time>
      </trkpt>
      <trkpt lat="48.95234" lon="1.8455">
        <ele>105.88</ele>
        <time>2012-05-08T15:04:54Z</time>
      </trkpt>
      <trkpt lat="48.9524" lon="1.84566">
        <ele>105.4</ele>
        <time>2012-05-08T15:05:08Z</time>
      </trkpt>
      <trkpt lat="48.95242" lon="1.84571">
        <ele>105.4</ele>
        <time>2012-05-08T15:05:11Z</time>
      </trkpt>
      <trkpt lat="48.95253" lon="1.84595">
        <ele>104.92</ele>
        <time>2012-05-08T15:05:27Z</time>
      </trkpt>
      <trkpt lat="48.95265" lon="1.84622">
        <ele>104.92</ele>
        <time>2012-05-08T15:05:44Z</time>
      </trkpt>
      <trkpt lat="48.95278" lon="1.84652">
        <ele>104.92</ele>
        <time>2012-05-08T15:06:02Z</time>
      </trkpt>
      <trkpt lat="48.95291" lon="1.84673">
        <ele>105.4</ele>
        <time>2012-05-08T15:06:19Z</time>
      </trkpt>
      <trkpt lat="48.95298" lon="1.84684">
        <ele>105.88</ele>
        <time>2012-05-08T15:06:28Z</time>
      </trkpt>
      <trkpt lat="48.95308" lon="1.84698">
        <ele>107.32</ele>
        <time>2012-05-08T15:06:40Z</time>
      </trkpt>
      <trkpt lat="48.95322" lon="1.84718">
        <ele>106.84</ele>
        <time>2012-05-08T15:06:55Z</time>
      </trkpt>
      <trkpt lat="48.95332" lon="1.84732">
        <ele>107.32</ele>
        <time>2012-05-08T15:07:05Z</time>
      </trkpt>
      <trkpt lat="48.95336" lon="1.84739">
        <ele>106.84</ele>
        <time>2012-05-08T15:07:10Z</time>
      </trkpt>
      <trkpt lat="48.95346" lon="1.84753">
        <ele>106.36</ele>
        <time>2012-05-08T15:07:25Z</time>
      </trkpt>
      <trkpt lat="48.95355" lon="1.84765">
        <ele>105.88</ele>
        <time>2012-05-08T15:07:44Z</time>
      </trkpt>
      <trkpt lat="48.95371" lon="1.84786">
        <ele>105.88</ele>
        <time>2012-05-08T15:08:00Z</time>
      </trkpt>
      <trkpt lat="48.95386" lon="1.84809">
        <ele>107.32</ele>
        <time>2012-05-08T15:08:17Z</time>
      </trkpt>
      <trkpt lat="48.95405" lon="1.84826">
        <ele>106.36</ele>
        <time>2012-05-08T15:08:33Z</time>
      </trkpt>
      <trkpt lat="48.95422" lon="1.84842">
        <ele>105.4</ele>
        <time>2012-05-08T15:08:48Z</time>
      </trkpt>
      <trkpt lat="48.95433" lon="1.84859">
        <ele>103</ele>
        <time>2012-05-08T15:09:01Z</time>
      </trkpt>
      <trkpt lat="48.95437" lon="1.84868">
        <ele>102.52</ele>
        <time>2012-05-08T15:09:07Z</time>
      </trkpt>
      <trkpt lat="48.9545" lon="1.84895">
        <ele>102.04</ele>
        <time>2012-05-08T15:09:24Z</time>
      </trkpt>
      <trkpt lat="48.95453" lon="1.84903">
        <ele>102.04</ele>
        <time>2012-05-08T15:09:29Z</time>
      </trkpt>
      <trkpt lat="48.95467" lon="1.84916">
        <ele>102.52</ele>
        <time>2012-05-08T15:09:42Z</time>
      </trkpt>
      <trkpt lat="48.95473" lon="1.84924">
        <ele>103</ele>
        <time>2012-05-08T15:09:50Z</time>
      </trkpt>
      <trkpt lat="48.95477" lon="1.84929">
        <ele>103</ele>
        <time>2012-05-08T15:09:54Z</time>
      </trkpt>
      <trkpt lat="48.95482" lon="1.84937">
        <ele>102.04</ele>
        <time>2012-05-08T15:10:08Z</time>
      </trkpt>
      <trkpt lat="48.95482" lon="1.84937">
        <ele>101.56</ele>
        <time>2012-05-08T15:10:41Z</time>
      </trkpt>
      <trkpt lat="48.95482" lon="1.84937">
        <ele>101.56</ele>
        <time>2012-05-08T15:11:09Z</time>
      </trkpt>
      <trkpt lat="48.95482" lon="1.84937">
        <ele>101.56</ele>
        <time>2012-05-08T15:11:33Z</time>
      </trkpt>
      <trkpt lat="48.95483" lon="1.84937">
        <ele>101.56</ele>
        <time>2012-05-08T15:11:42Z</time>
      </trkpt>
      <trkpt lat="48.95493" lon="1.84943">
        <ele>101.56</ele>
        <time>2012-05-08T15:11:57Z</time>
      </trkpt>
      <trkpt lat="48.95493" lon="1.84943">
        <ele>101.56</ele>
        <time>2012-05-08T15:12:16Z</time>
      </trkpt>
      <trkpt lat="48.95482" lon="1.84934">
        <ele>102.52</ele>
        <time>2012-05-08T15:12:29Z</time>
      </trkpt>
      <trkpt lat="48.95496" lon="1.84948">
        <ele>103.48</ele>
        <time>2012-05-08T15:12:45Z</time>
      </trkpt>
      <trkpt lat="48.95502" lon="1.84949">
        <ele>104.44</ele>
        <time>2012-05-08T15:12:54Z</time>
      </trkpt>
      <trkpt lat="48.95519" lon="1.84951">
        <ele>103</ele>
        <time>2012-05-08T15:13:10Z</time>
      </trkpt>
      <trkpt lat="48.95519" lon="1.84952">
        <ele>103</ele>
        <time>2012-05-08T15:13:26Z</time>
      </trkpt>
      <trkpt lat="48.95502" lon="1.84948">
        <ele>103</ele>
        <time>2012-05-08T15:13:41Z</time>
      </trkpt>
      <trkpt lat="48.95501" lon="1.84948">
        <ele>103</ele>
        <time>2012-05-08T15:13:42Z</time>
      </trkpt>
      <trkpt lat="48.95489" lon="1.84942">
        <ele>103</ele>
        <time>2012-05-08T15:13:54Z</time>
      </trkpt>
      <trkpt lat="48.95484" lon="1.84934">
        <ele>103.48</ele>
        <time>2012-05-08T15:14:06Z</time>
      </trkpt>
      <trkpt lat="48.9548" lon="1.84931">
        <ele>103.48</ele>
        <time>2012-05-08T15:14:10Z</time>
      </trkpt>
      <trkpt lat="48.95466" lon="1.84922">
        <ele>103</ele>
        <time>2012-05-08T15:14:22Z</time>
      </trkpt>
      <trkpt lat="48.95454" lon="1.84911">
        <ele>103.48</ele>
        <time>2012-05-08T15:14:36Z</time>
      </trkpt>
      <trkpt lat="48.9545" lon="1.84904">
        <ele>103.48</ele>
        <time>2012-05-08T15:14:58Z</time>
      </trkpt>
      <trkpt lat="48.95447" lon="1.84898">
        <ele>103.96</ele>
        <time>2012-05-08T15:15:05Z</time>
      </trkpt>
      <trkpt lat="48.9544" lon="1.84865">
        <ele>103.48</ele>
        <time>2012-05-08T15:15:22Z</time>
      </trkpt>
      <trkpt lat="48.95439" lon="1.84864">
        <ele>103.48</ele>
        <time>2012-05-08T15:15:37Z</time>
      </trkpt>
      <trkpt lat="48.95439" lon="1.84864">
        <ele>103.48</ele>
        <time>2012-05-08T15:15:49Z</time>
      </trkpt>
      <trkpt lat="48.9544" lon="1.84868">
        <ele>103</ele>
        <time>2012-05-08T15:15:53Z</time>
      </trkpt>
      <trkpt lat="48.95452" lon="1.84896">
        <ele>102.52</ele>
        <time>2012-05-08T15:16:11Z</time>
      </trkpt>
      <trkpt lat="48.95468" lon="1.84915">
        <ele>102.52</ele>
        <time>2012-05-08T15:16:27Z</time>
      </trkpt>
      <trkpt lat="48.95482" lon="1.84932">
        <ele>101.08</ele>
        <time>2012-05-08T15:16:41Z</time>
      </trkpt>
      <trkpt lat="48.95483" lon="1.84938">
        <ele>100.11</ele>
        <time>2012-05-08T15:16:59Z</time>
      </trkpt>
      <trkpt lat="48.95482" lon="1.84934">
        <ele>99.63</ele>
        <time>2012-05-08T15:17:18Z</time>
      </trkpt>
      <trkpt lat="48.95479" lon="1.84931">
        <ele>99.15</ele>
        <time>2012-05-08T15:17:30Z</time>
      </trkpt>
      <trkpt lat="48.9548" lon="1.84932">
        <ele>99.15</ele>
        <time>2012-05-08T15:17:37Z</time>
      </trkpt>
      <trkpt lat="48.95497" lon="1.84946">
        <ele>100.11</ele>
        <time>2012-05-08T15:17:52Z</time>
      </trkpt>
      <trkpt lat="48.95504" lon="1.84948">
        <ele>101.56</ele>
        <time>2012-05-08T15:17:58Z</time>
      </trkpt>
      <trkpt lat="48.95524" lon="1.8496">
        <ele>101.56</ele>
        <time>2012-05-08T15:18:14Z</time>
      </trkpt>
      <trkpt lat="48.95533" lon="1.84967">
        <ele>101.56</ele>
        <time>2012-05-08T15:18:28Z</time>
      </trkpt>
      <trkpt lat="48.95533" lon="1.84967">
        <ele>101.56</ele>
        <time>2012-05-08T15:18:41Z</time>
      </trkpt>
      <trkpt lat="48.95529" lon="1.84964">
        <ele>102.52</ele>
        <time>2012-05-08T15:18:46Z</time>
      </trkpt>
      <trkpt lat="48.95512" lon="1.84954">
        <ele>105.88</ele>
        <time>2012-05-08T15:19:01Z</time>
      </trkpt>
      <trkpt lat="48.95492" lon="1.84943">
        <ele>104.92</ele>
        <time>2012-05-08T15:19:19Z</time>
      </trkpt>
      <trkpt lat="48.95485" lon="1.84937">
        <ele>105.4</ele>
        <time>2012-05-08T15:19:26Z</time>
      </trkpt>
      <trkpt lat="48.95481" lon="1.84932">
        <ele>104.92</ele>
        <time>2012-05-08T15:19:30Z</time>
      </trkpt>
      <trkpt lat="48.95465" lon="1.84915">
        <ele>104.92</ele>
        <time>2012-05-08T15:19:45Z</time>
      </trkpt>
      <trkpt lat="48.95452" lon="1.84895">
        <ele>103.48</ele>
        <time>2012-05-08T15:19:59Z</time>
      </trkpt>
      <trkpt lat="48.95442" lon="1.84868">
        <ele>101.08</ele>
        <time>2012-05-08T15:20:15Z</time>
      </trkpt>
      <trkpt lat="48.95444" lon="1.84861">
        <ele>100.6</ele>
        <time>2012-05-08T15:20:19Z</time>
      </trkpt>
      <trkpt lat="48.95464" lon="1.84839">
        <ele>99.15</ele>
        <time>2012-05-08T15:20:39Z</time>
      </trkpt>
      <trkpt lat="48.95482" lon="1.84825">
        <ele>98.19</ele>
        <time>2012-05-08T15:20:55Z</time>
      </trkpt>
      <trkpt lat="48.95497" lon="1.8481">
        <ele>97.23</ele>
        <time>2012-05-08T15:21:09Z</time>
      </trkpt>
      <trkpt lat="48.95514" lon="1.84792">
        <ele>95.79</ele>
        <time>2012-05-08T15:21:25Z</time>
      </trkpt>
      <trkpt lat="48.95516" lon="1.84791">
        <ele>95.79</ele>
        <time>2012-05-08T15:21:27Z</time>
      </trkpt>
      <trkpt lat="48.95526" lon="1.84779">
        <ele>98.67</ele>
        <time>2012-05-08T15:21:43Z</time>
      </trkpt>
      <trkpt lat="48.95539" lon="1.84767">
        <ele>93.39</ele>
        <time>2012-05-08T15:21:57Z</time>
      </trkpt>
      <trkpt lat="48.95533" lon="1.84744">
        <ele>90.02</ele>
        <time>2012-05-08T15:22:13Z</time>
      </trkpt>
      <trkpt lat="48.95531" lon="1.84725">
        <ele>90.98</ele>
        <time>2012-05-08T15:22:28Z</time>
      </trkpt>
      <trkpt lat="48.95531" lon="1.84724">
        <ele>91.46</ele>
        <time>2012-05-08T15:22:48Z</time>
      </trkpt>
      <trkpt lat="48.95529" lon="1.84713">
        <ele>90.5</ele>
        <time>2012-05-08T15:23:14Z</time>
      </trkpt>
      <trkpt lat="48.95522" lon="1.84693">
        <ele>90.98</ele>
        <time>2012-05-08T15:23:29Z</time>
      </trkpt>
      <trkpt lat="48.95516" lon="1.84675">
        <ele>91.94</ele>
        <time>2012-05-08T15:23:40Z</time>
      </trkpt>
      <trkpt lat="48.95505" lon="1.84649">
        <ele>93.87</ele>
        <time>2012-05-08T15:23:57Z</time>
      </trkpt>
      <trkpt lat="48.95504" lon="1.84647">
        <ele>94.35</ele>
        <time>2012-05-08T15:24:13Z</time>
      </trkpt>
      <trkpt lat="48.95503" lon="1.84644">
        <ele>93.87</ele>
        <time>2012-05-08T15:24:34Z</time>
      </trkpt>
      <trkpt lat="48.95499" lon="1.8463">
        <ele>94.35</ele>
        <time>2012-05-08T15:24:46Z</time>
      </trkpt>
      <trkpt lat="48.95488" lon="1.84597">
        <ele>96.75</ele>
        <time>2012-05-08T15:25:02Z</time>
      </trkpt>
      <trkpt lat="48.95479" lon="1.84569">
        <ele>98.67</ele>
        <time>2012-05-08T15:25:17Z</time>
      </trkpt>
      <trkpt lat="48.95473" lon="1.84539">
        <ele>94.35</ele>
        <time>2012-05-08T15:25:30Z</time>
      </trkpt>
      <trkpt lat="48.95464" lon="1.84517">
        <ele>95.31</ele>
        <time>2012-05-08T15:25:44Z</time>
      </trkpt>
      <trkpt lat="48.95456" lon="1.84503">
        <ele>96.27</ele>
        <time>2012-05-08T15:25:58Z</time>
      </trkpt>
      <trkpt lat="48.95452" lon="1.845">
        <ele>97.23</ele>
        <time>2012-05-08T15:26:11Z</time>
      </trkpt>
      <trkpt lat="48.95441" lon="1.84485">
        <ele>100.6</ele>
        <time>2012-05-08T15:26:25Z</time>
      </trkpt>
      <trkpt lat="48.95427" lon="1.84462">
        <ele>103</ele>
        <time>2012-05-08T15:26:42Z</time>
      </trkpt>
      <trkpt lat="48.9542" lon="1.84452">
        <ele>104.92</ele>
        <time>2012-05-08T15:26:56Z</time>
      </trkpt>
      <trkpt lat="48.95416" lon="1.84446">
        <ele>105.4</ele>
        <time>2012-05-08T15:27:14Z</time>
      </trkpt>
      <trkpt lat="48.954" lon="1.84424">
        <ele>108.77</ele>
        <time>2012-05-08T15:27:29Z</time>
      </trkpt>
      <trkpt lat="48.95383" lon="1.84407">
        <ele>108.29</ele>
        <time>2012-05-08T15:27:43Z</time>
      </trkpt>
      <trkpt lat="48.95382" lon="1.84402">
        <ele>106.36</ele>
        <time>2012-05-08T15:27:45Z</time>
      </trkpt>
      <trkpt lat="48.9538" lon="1.8439">
        <ele>103.48</ele>
        <time>2012-05-08T15:27:50Z</time>
      </trkpt>
      <trkpt lat="48.95378" lon="1.84356">
        <ele>97.23</ele>
        <time>2012-05-08T15:28:08Z</time>
      </trkpt>
      <trkpt lat="48.95376" lon="1.84347">
        <ele>98.19</ele>
        <time>2012-05-08T15:28:14Z</time>
      </trkpt>
      <trkpt lat="48.95374" lon="1.84341">
        <ele>98.67</ele>
        <time>2012-05-08T15:28:18Z</time>
      </trkpt>
      <trkpt lat="48.9536" lon="1.84323">
        <ele>101.56</ele>
        <time>2012-05-08T15:28:33Z</time>
      </trkpt>
      <trkpt lat="48.9535" lon="1.84303">
        <ele>102.52</ele>
        <time>2012-05-08T15:28:48Z</time>
      </trkpt>
      <trkpt lat="48.95334" lon="1.84287">
        <ele>103</ele>
        <time>2012-05-08T15:29:04Z</time>
      </trkpt>
      <trkpt lat="48.95318" lon="1.84276">
        <ele>103.48</ele>
        <time>2012-05-08T15:29:19Z</time>
      </trkpt>
      <trkpt lat="48.95305" lon="1.84272">
        <ele>103.48</ele>
        <time>2012-05-08T15:29:29Z</time>
      </trkpt>
      <trkpt lat="48.9529" lon="1.84264">
        <ele>103</ele>
        <time>2012-05-08T15:29:42Z</time>
      </trkpt>
      <trkpt lat="48.95289" lon="1.84262">
        <ele>102.52</ele>
        <time>2012-05-08T15:29:44Z</time>
      </trkpt>
      <trkpt lat="48.95282" lon="1.84256">
        <ele>102.04</ele>
        <time>2012-05-08T15:29:49Z</time>
      </trkpt>
      <trkpt lat="48.95278" lon="1.84253">
        <ele>101.56</ele>
        <time>2012-05-08T15:30:04Z</time>
      </trkpt>
      <trkpt lat="48.95267" lon="1.84239">
        <ele>99.15</ele>
        <time>2012-05-08T15:30:17Z</time>
      </trkpt>
      <trkpt lat="48.95251" lon="1.84229">
        <ele>100.11</ele>
        <time>2012-05-08T15:30:29Z</time>
      </trkpt>
      <trkpt lat="48.95246" lon="1.84226">
        <ele>100.6</ele>
        <time>2012-05-08T15:30:34Z</time>
      </trkpt>
      <trkpt lat="48.95243" lon="1.8422">
        <ele>103</ele>
        <time>2012-05-08T15:30:40Z</time>
      </trkpt>
      <trkpt lat="48.95246" lon="1.84186">
        <ele>102.04</ele>
        <time>2012-05-08T15:30:56Z</time>
      </trkpt>
      <trkpt lat="48.95252" lon="1.84167">
        <ele>100.11</ele>
        <time>2012-05-08T15:31:12Z</time>
      </trkpt>
      <trkpt lat="48.95252" lon="1.84158">
        <ele>100.11</ele>
        <time>2012-05-08T15:31:31Z</time>
      </trkpt>
      <trkpt lat="48.95265" lon="1.84135">
        <ele>93.39</ele>
        <time>2012-05-08T15:31:47Z</time>
      </trkpt>
      <trkpt lat="48.95274" lon="1.84125">
        <ele>85.21</ele>
        <time>2012-05-08T15:32:00Z</time>
      </trkpt>
      <trkpt lat="48.95284" lon="1.84106">
        <ele>82.33</ele>
        <time>2012-05-08T15:32:14Z</time>
      </trkpt>
      <trkpt lat="48.95291" lon="1.84094">
        <ele>79.93</ele>
        <time>2012-05-08T15:32:27Z</time>
      </trkpt>
      <trkpt lat="48.9529" lon="1.84094">
        <ele>79.45</ele>
        <time>2012-05-08T15:32:39Z</time>
      </trkpt>
      <trkpt lat="48.95281" lon="1.84093">
        <ele>79.93</ele>
        <time>2012-05-08T15:32:47Z</time>
      </trkpt>
      <trkpt lat="48.95266" lon="1.84078">
        <ele>81.85</ele>
        <time>2012-05-08T15:33:00Z</time>
      </trkpt>
      <trkpt lat="48.9526" lon="1.84068">
        <ele>83.29</ele>
        <time>2012-05-08T15:33:12Z</time>
      </trkpt>
      <trkpt lat="48.95251" lon="1.84064">
        <ele>85.69</ele>
        <time>2012-05-08T15:33:23Z</time>
      </trkpt>
      <trkpt lat="48.95234" lon="1.84053">
        <ele>88.1</ele>
        <time>2012-05-08T15:33:41Z</time>
      </trkpt>
      <trkpt lat="48.95227" lon="1.84051">
        <ele>90.02</ele>
        <time>2012-05-08T15:33:49Z</time>
      </trkpt>
      <trkpt lat="48.952" lon="1.84041">
        <ele>88.58</ele>
        <time>2012-05-08T15:34:07Z</time>
      </trkpt>
      <trkpt lat="48.95199" lon="1.8404">
        <ele>88.58</ele>
        <time>2012-05-08T15:34:08Z</time>
      </trkpt>
      <trkpt lat="48.95192" lon="1.84027">
        <ele>86.18</ele>
        <time>2012-05-08T15:34:16Z</time>
      </trkpt>
      <trkpt lat="48.95179" lon="1.84014">
        <ele>88.1</ele>
        <time>2012-05-08T15:34:30Z</time>
      </trkpt>
      <trkpt lat="48.9517" lon="1.83993">
        <ele>89.06</ele>
        <time>2012-05-08T15:34:44Z</time>
      </trkpt>
      <trkpt lat="48.95156" lon="1.83973">
        <ele>91.46</ele>
        <time>2012-05-08T15:35:00Z</time>
      </trkpt>
      <trkpt lat="48.95143" lon="1.8395">
        <ele>90.5</ele>
        <time>2012-05-08T15:35:14Z</time>
      </trkpt>
      <trkpt lat="48.95137" lon="1.83928">
        <ele>88.58</ele>
        <time>2012-05-08T15:35:27Z</time>
      </trkpt>
      <trkpt lat="48.95137" lon="1.8391">
        <ele>88.58</ele>
        <time>2012-05-08T15:35:37Z</time>
      </trkpt>
      <trkpt lat="48.95136" lon="1.83899">
        <ele>90.02</ele>
        <time>2012-05-08T15:35:42Z</time>
      </trkpt>
      <trkpt lat="48.95134" lon="1.83893">
        <ele>90.5</ele>
        <time>2012-05-08T15:35:46Z</time>
      </trkpt>
      <trkpt lat="48.95127" lon="1.83878">
        <ele>90.5</ele>
        <time>2012-05-08T15:35:56Z</time>
      </trkpt>
      <trkpt lat="48.9511" lon="1.83863">
        <ele>87.14</ele>
        <time>2012-05-08T15:36:10Z</time>
      </trkpt>
      <trkpt lat="48.95101" lon="1.83848">
        <ele>85.21</ele>
        <time>2012-05-08T15:36:25Z</time>
      </trkpt>
      <trkpt lat="48.95089" lon="1.83839">
        <ele>81.37</ele>
        <time>2012-05-08T15:36:40Z</time>
      </trkpt>
      <trkpt lat="48.95085" lon="1.83836">
        <ele>79.93</ele>
        <time>2012-05-08T15:36:45Z</time>
      </trkpt>
      <trkpt lat="48.95072" lon="1.83831">
        <ele>82.33</ele>
        <time>2012-05-08T15:36:59Z</time>
      </trkpt>
      <trkpt lat="48.95057" lon="1.83818">
        <ele>80.89</ele>
        <time>2012-05-08T15:37:13Z</time>
      </trkpt>
      <trkpt lat="48.95041" lon="1.8381">
        <ele>86.18</ele>
        <time>2012-05-08T15:37:31Z</time>
      </trkpt>
      <trkpt lat="48.95016" lon="1.83808">
        <ele>83.29</ele>
        <time>2012-05-08T15:37:45Z</time>
      </trkpt>
      <trkpt lat="48.95004" lon="1.83806">
        <ele>80.89</ele>
        <time>2012-05-08T15:38:01Z</time>
      </trkpt>
      <trkpt lat="48.95004" lon="1.83806">
        <ele>80.89</ele>
        <time>2012-05-08T15:38:30Z</time>
      </trkpt>
      <trkpt lat="48.94994" lon="1.83801">
        <ele>78.48</ele>
        <time>2012-05-08T15:38:46Z</time>
      </trkpt>
      <trkpt lat="48.94984" lon="1.83801">
        <ele>76.56</ele>
        <time>2012-05-08T15:39:01Z</time>
      </trkpt>
      <trkpt lat="48.94976" lon="1.83797">
        <ele>75.12</ele>
        <time>2012-05-08T15:39:20Z</time>
      </trkpt>
      <trkpt lat="48.94962" lon="1.83791">
        <ele>72.72</ele>
        <time>2012-05-08T15:39:35Z</time>
      </trkpt>
      <trkpt lat="48.94942" lon="1.83781">
        <ele>74.16</ele>
        <time>2012-05-08T15:39:52Z</time>
      </trkpt>
      <trkpt lat="48.94922" lon="1.83782">
        <ele>70.79</ele>
        <time>2012-05-08T15:40:07Z</time>
      </trkpt>
      <trkpt lat="48.94914" lon="1.83785">
        <ele>69.35</ele>
        <time>2012-05-08T15:40:14Z</time>
      </trkpt>
      <trkpt lat="48.94904" lon="1.83786">
        <ele>68.39</ele>
        <time>2012-05-08T15:40:21Z</time>
      </trkpt>
      <trkpt lat="48.94897" lon="1.83789">
        <ele>67.43</ele>
        <time>2012-05-08T15:40:28Z</time>
      </trkpt>
      <trkpt lat="48.94888" lon="1.83792">
        <ele>66.47</ele>
        <time>2012-05-08T15:40:36Z</time>
      </trkpt>
      <trkpt lat="48.94866" lon="1.83803">
        <ele>65.03</ele>
        <time>2012-05-08T15:40:53Z</time>
      </trkpt>
      <trkpt lat="48.9485" lon="1.8381">
        <ele>63.58</ele>
        <time>2012-05-08T15:41:07Z</time>
      </trkpt>
      <trkpt lat="48.94836" lon="1.83812">
        <ele>64.07</ele>
        <time>2012-05-08T15:41:20Z</time>
      </trkpt>
      <trkpt lat="48.94817" lon="1.83819">
        <ele>65.51</ele>
        <time>2012-05-08T15:41:36Z</time>
      </trkpt>
      <trkpt lat="48.94816" lon="1.8382">
        <ele>65.51</ele>
        <time>2012-05-08T15:41:39Z</time>
      </trkpt>
      <trkpt lat="48.94814" lon="1.8382">
        <ele>65.51</ele>
        <time>2012-05-08T15:41:41Z</time>
      </trkpt>
      <trkpt lat="48.94799" lon="1.8383">
        <ele>65.51</ele>
        <time>2012-05-08T15:41:55Z</time>
      </trkpt>
      <trkpt lat="48.94781" lon="1.83838">
        <ele>63.1</ele>
        <time>2012-05-08T15:42:10Z</time>
      </trkpt>
      <trkpt lat="48.94763" lon="1.83847">
        <ele>64.07</ele>
        <time>2012-05-08T15:42:26Z</time>
      </trkpt>
      <trkpt lat="48.94753" lon="1.8385">
        <ele>63.1</ele>
        <time>2012-05-08T15:42:35Z</time>
      </trkpt>
      <trkpt lat="48.94751" lon="1.83852">
        <ele>63.1</ele>
        <time>2012-05-08T15:42:37Z</time>
      </trkpt>
      <trkpt lat="48.94725" lon="1.8386">
        <ele>62.14</ele>
        <time>2012-05-08T15:42:57Z</time>
      </trkpt>
      <trkpt lat="48.94711" lon="1.83866">
        <ele>62.62</ele>
        <time>2012-05-08T15:43:09Z</time>
      </trkpt>
      <trkpt lat="48.94709" lon="1.83867">
        <ele>63.58</ele>
        <time>2012-05-08T15:43:11Z</time>
      </trkpt>
      <trkpt lat="48.94707" lon="1.83868">
        <ele>64.07</ele>
        <time>2012-05-08T15:43:13Z</time>
      </trkpt>
      <trkpt lat="48.94687" lon="1.83876">
        <ele>65.99</ele>
        <time>2012-05-08T15:43:31Z</time>
      </trkpt>
      <trkpt lat="48.94672" lon="1.83887">
        <ele>66.95</ele>
        <time>2012-05-08T15:43:45Z</time>
      </trkpt>
      <trkpt lat="48.9466" lon="1.83899">
        <ele>69.35</ele>
        <time>2012-05-08T15:43:55Z</time>
      </trkpt>
      <trkpt lat="48.94653" lon="1.83902">
        <ele>70.31</ele>
        <time>2012-05-08T15:44:00Z</time>
      </trkpt>
      <trkpt lat="48.94639" lon="1.83912">
        <ele>70.31</ele>
        <time>2012-05-08T15:44:15Z</time>
      </trkpt>
      <trkpt lat="48.94635" lon="1.83911">
        <ele>70.79</ele>
        <time>2012-05-08T15:44:30Z</time>
      </trkpt>
      <trkpt lat="48.94635" lon="1.83911">
        <ele>70.79</ele>
        <time>2012-05-08T15:44:58Z</time>
      </trkpt>
      <trkpt lat="48.94632" lon="1.83913">
        <ele>71.27</ele>
        <time>2012-05-08T15:45:11Z</time>
      </trkpt>
      <trkpt lat="48.9463" lon="1.83913">
        <ele>71.27</ele>
        <time>2012-05-08T15:45:13Z</time>
      </trkpt>
      <trkpt lat="48.9461" lon="1.8393">
        <ele>73.68</ele>
        <time>2012-05-08T15:45:33Z</time>
      </trkpt>
      <trkpt lat="48.94588" lon="1.83948">
        <ele>73.68</ele>
        <time>2012-05-08T15:45:50Z</time>
      </trkpt>
      <trkpt lat="48.94567" lon="1.83964">
        <ele>74.16</ele>
        <time>2012-05-08T15:46:07Z</time>
      </trkpt>
      <trkpt lat="48.94548" lon="1.8398">
        <ele>74.16</ele>
        <time>2012-05-08T15:46:24Z</time>
      </trkpt>
      <trkpt lat="48.94531" lon="1.83996">
        <ele>69.83</ele>
        <time>2012-05-08T15:46:40Z</time>
      </trkpt>
      <trkpt lat="48.94516" lon="1.84007">
        <ele>68.87</ele>
        <time>2012-05-08T15:46:58Z</time>
      </trkpt>
      <trkpt lat="48.94498" lon="1.8402">
        <ele>69.35</ele>
        <time>2012-05-08T15:47:14Z</time>
      </trkpt>
      <trkpt lat="48.94486" lon="1.84029">
        <ele>70.31</ele>
        <time>2012-05-08T15:47:27Z</time>
      </trkpt>
      <trkpt lat="48.94485" lon="1.8403">
        <ele>70.79</ele>
        <time>2012-05-08T15:47:29Z</time>
      </trkpt>
      <trkpt lat="48.94471" lon="1.84056">
        <ele>74.64</ele>
        <time>2012-05-08T15:47:48Z</time>
      </trkpt>
      <trkpt lat="48.94466" lon="1.84063">
        <ele>75.6</ele>
        <time>2012-05-08T15:48:03Z</time>
      </trkpt>
      <trkpt lat="48.94465" lon="1.84065">
        <ele>75.6</ele>
        <time>2012-05-08T15:48:31Z</time>
      </trkpt>
      <trkpt lat="48.94449" lon="1.84083">
        <ele>76.08</ele>
        <time>2012-05-08T15:48:47Z</time>
      </trkpt>
      <trkpt lat="48.94433" lon="1.84097">
        <ele>78.48</ele>
        <time>2012-05-08T15:49:03Z</time>
      </trkpt>
      <trkpt lat="48.94417" lon="1.84117">
        <ele>79.45</ele>
        <time>2012-05-08T15:49:19Z</time>
      </trkpt>
      <trkpt lat="48.94407" lon="1.84135">
        <ele>81.37</ele>
        <time>2012-05-08T15:49:34Z</time>
      </trkpt>
      <trkpt lat="48.94393" lon="1.84154">
        <ele>86.18</ele>
        <time>2012-05-08T15:49:51Z</time>
      </trkpt>
      <trkpt lat="48.94374" lon="1.84167">
        <ele>83.29</ele>
        <time>2012-05-08T15:50:06Z</time>
      </trkpt>
      <trkpt lat="48.94369" lon="1.8417">
        <ele>80.89</ele>
        <time>2012-05-08T15:50:10Z</time>
      </trkpt>
      <trkpt lat="48.94362" lon="1.84173">
        <ele>78</ele>
        <time>2012-05-08T15:50:16Z</time>
      </trkpt>
      <trkpt lat="48.9434" lon="1.84186">
        <ele>74.64</ele>
        <time>2012-05-08T15:50:35Z</time>
      </trkpt>
      <trkpt lat="48.94333" lon="1.84191">
        <ele>74.64</ele>
        <time>2012-05-08T15:50:42Z</time>
      </trkpt>
      <trkpt lat="48.9433" lon="1.84192">
        <ele>75.12</ele>
        <time>2012-05-08T15:50:44Z</time>
      </trkpt>
      <trkpt lat="48.94314" lon="1.84205">
        <ele>76.08</ele>
        <time>2012-05-08T15:50:59Z</time>
      </trkpt>
      <trkpt lat="48.94293" lon="1.8422">
        <ele>75.6</ele>
        <time>2012-05-08T15:51:16Z</time>
      </trkpt>
      <trkpt lat="48.94277" lon="1.84235">
        <ele>75.6</ele>
        <time>2012-05-08T15:51:31Z</time>
      </trkpt>
      <trkpt lat="48.94269" lon="1.84242">
        <ele>76.56</ele>
        <time>2012-05-08T15:51:39Z</time>
      </trkpt>
      <trkpt lat="48.94254" lon="1.84252">
        <ele>78</ele>
        <time>2012-05-08T15:51:52Z</time>
      </trkpt>
      <trkpt lat="48.94242" lon="1.84258">
        <ele>76.08</ele>
        <time>2012-05-08T15:52:01Z</time>
      </trkpt>
      <trkpt lat="48.94236" lon="1.84257">
        <ele>74.64</ele>
        <time>2012-05-08T15:52:06Z</time>
      </trkpt>
      <trkpt lat="48.94222" lon="1.84237">
        <ele>76.08</ele>
        <time>2012-05-08T15:52:21Z</time>
      </trkpt>
      <trkpt lat="48.9422" lon="1.84233">
        <ele>75.12</ele>
        <time>2012-05-08T15:52:24Z</time>
      </trkpt>
      <trkpt lat="48.94204" lon="1.84227">
        <ele>75.12</ele>
        <time>2012-05-08T15:52:39Z</time>
      </trkpt>
      <trkpt lat="48.94196" lon="1.84227">
        <ele>74.16</ele>
        <time>2012-05-08T15:52:47Z</time>
      </trkpt>
      <trkpt lat="48.94175" lon="1.84233">
        <ele>72.24</ele>
        <time>2012-05-08T15:53:04Z</time>
      </trkpt>
      <trkpt lat="48.94169" lon="1.84237">
        <ele>70.79</ele>
        <time>2012-05-08T15:53:09Z</time>
      </trkpt>
      <trkpt lat="48.94164" lon="1.84242">
        <ele>70.31</ele>
        <time>2012-05-08T15:53:15Z</time>
      </trkpt>
      <trkpt lat="48.94151" lon="1.8425">
        <ele>72.24</ele>
        <time>2012-05-08T15:53:31Z</time>
      </trkpt>
      <trkpt lat="48.94138" lon="1.84262">
        <ele>72.72</ele>
        <time>2012-05-08T15:53:43Z</time>
      </trkpt>
      <trkpt lat="48.94128" lon="1.84275">
        <ele>71.76</ele>
        <time>2012-05-08T15:53:56Z</time>
      </trkpt>
      <trkpt lat="48.94126" lon="1.84271">
        <ele>71.76</ele>
        <time>2012-05-08T15:54:04Z</time>
      </trkpt>
      <trkpt lat="48.94125" lon="1.84267">
        <ele>71.76</ele>
        <time>2012-05-08T15:54:07Z</time>
      </trkpt>
      <trkpt lat="48.94117" lon="1.84237">
        <ele>68.87</ele>
        <time>2012-05-08T15:54:25Z</time>
      </trkpt>
      <trkpt lat="48.94111" lon="1.84211">
        <ele>62.62</ele>
        <time>2012-05-08T15:54:42Z</time>
      </trkpt>
      <trkpt lat="48.94105" lon="1.84185">
        <ele>56.86</ele>
        <time>2012-05-08T15:54:58Z</time>
      </trkpt>
      <trkpt lat="48.94097" lon="1.84156">
        <ele>51.09</ele>
        <time>2012-05-08T15:55:16Z</time>
      </trkpt>
      <trkpt lat="48.94091" lon="1.84125">
        <ele>46.76</ele>
        <time>2012-05-08T15:55:34Z</time>
      </trkpt>
      <trkpt lat="48.94086" lon="1.84111">
        <ele>45.8</ele>
        <time>2012-05-08T15:55:46Z</time>
      </trkpt>
      <trkpt lat="48.9408" lon="1.84108">
        <ele>45.32</ele>
        <time>2012-05-08T15:56:00Z</time>
      </trkpt>
      <trkpt lat="48.9408" lon="1.84108">
        <ele>45.32</ele>
        <time>2012-05-08T15:56:28Z</time>
      </trkpt>
      <trkpt lat="48.94081" lon="1.84108">
        <ele>44.84</ele>
        <time>2012-05-08T15:56:40Z</time>
      </trkpt>
      <trkpt lat="48.94093" lon="1.84103">
        <ele>45.32</ele>
        <time>2012-05-08T15:56:49Z</time>
      </trkpt>
      <trkpt lat="48.94099" lon="1.841">
        <ele>45.8</ele>
        <time>2012-05-08T15:56:53Z</time>
      </trkpt>
      <trkpt lat="48.94111" lon="1.84097">
        <ele>47.24</ele>
        <time>2012-05-08T15:57:03Z</time>
      </trkpt>
      <trkpt lat="48.94113" lon="1.84092">
        <ele>47.24</ele>
        <time>2012-05-08T15:57:11Z</time>
      </trkpt>
      <trkpt lat="48.94123" lon="1.84091">
        <ele>47.24</ele>
        <time>2012-05-08T15:57:19Z</time>
      </trkpt>
      <trkpt lat="48.9412" lon="1.84082">
        <ele>45.32</ele>
        <time>2012-05-08T15:57:33Z</time>
      </trkpt>
      <trkpt lat="48.94118" lon="1.84072">
        <ele>43.88</ele>
        <time>2012-05-08T15:57:39Z</time>
      </trkpt>
      <trkpt lat="48.94116" lon="1.84062">
        <ele>42.44</ele>
        <time>2012-05-08T15:57:45Z</time>
      </trkpt>
      <trkpt lat="48.94106" lon="1.84026">
        <ele>38.11</ele>
        <time>2012-05-08T15:58:05Z</time>
      </trkpt>
      <trkpt lat="48.94096" lon="1.83999">
        <ele>35.23</ele>
        <time>2012-05-08T15:58:22Z</time>
      </trkpt>
      <trkpt lat="48.94098" lon="1.83978">
        <ele>31.38</ele>
        <time>2012-05-08T15:58:34Z</time>
      </trkpt>
      <trkpt lat="48.94106" lon="1.83965">
        <ele>28.5</ele>
        <time>2012-05-08T15:58:43Z</time>
      </trkpt>
      <trkpt lat="48.94106" lon="1.8396">
        <ele>28.02</ele>
        <time>2012-05-08T15:58:50Z</time>
      </trkpt>
      <trkpt lat="48.94092" lon="1.83966">
        <ele>27.05</ele>
        <time>2012-05-08T15:59:00Z</time>
      </trkpt>
      <trkpt lat="48.94085" lon="1.83958">
        <ele>27.05</ele>
        <time>2012-05-08T15:59:06Z</time>
      </trkpt>
      <trkpt lat="48.9408" lon="1.83957">
        <ele>26.57</ele>
        <time>2012-05-08T15:59:10Z</time>
      </trkpt>
      <trkpt lat="48.94062" lon="1.83968">
        <ele>25.13</ele>
        <time>2012-05-08T15:59:26Z</time>
      </trkpt>
      <trkpt lat="48.94043" lon="1.83978">
        <ele>25.13</ele>
        <time>2012-05-08T15:59:43Z</time>
      </trkpt>
      <trkpt lat="48.94025" lon="1.83987">
        <ele>25.13</ele>
        <time>2012-05-08T15:59:59Z</time>
      </trkpt>
      <trkpt lat="48.94019" lon="1.83991">
        <ele>25.61</ele>
        <time>2012-05-08T16:00:04Z</time>
      </trkpt>
      <trkpt lat="48.94014" lon="1.83994">
        <ele>25.13</ele>
        <time>2012-05-08T16:00:09Z</time>
      </trkpt>
      <trkpt lat="48.93993" lon="1.84004">
        <ele>24.65</ele>
        <time>2012-05-08T16:00:26Z</time>
      </trkpt>
      <trkpt lat="48.93974" lon="1.84021">
        <ele>26.09</ele>
        <time>2012-05-08T16:00:43Z</time>
      </trkpt>
      <trkpt lat="48.93952" lon="1.8404">
        <ele>25.13</ele>
        <time>2012-05-08T16:01:02Z</time>
      </trkpt>
      <trkpt lat="48.93935" lon="1.84057">
        <ele>24.17</ele>
        <time>2012-05-08T16:01:18Z</time>
      </trkpt>
      <trkpt lat="48.93916" lon="1.8407">
        <ele>24.17</ele>
        <time>2012-05-08T16:01:33Z</time>
      </trkpt>
      <trkpt lat="48.93904" lon="1.84071">
        <ele>24.17</ele>
        <time>2012-05-08T16:01:48Z</time>
      </trkpt>
      <trkpt lat="48.93904" lon="1.84071">
        <ele>24.17</ele>
        <time>2012-05-08T16:02:06Z</time>
      </trkpt>
      <trkpt lat="48.93904" lon="1.8407">
        <ele>25.13</ele>
        <time>2012-05-08T16:02:19Z</time>
      </trkpt>
      <trkpt lat="48.93904" lon="1.8407">
        <ele>25.13</ele>
        <time>2012-05-08T16:02:51Z</time>
      </trkpt>
      <trkpt lat="48.939" lon="1.84066">
        <ele>25.61</ele>
        <time>2012-05-08T16:03:12Z</time>
      </trkpt>
      <trkpt lat="48.939" lon="1.84066">
        <ele>25.61</ele>
        <time>2012-05-08T16:03:13Z</time>
      </trkpt>
      <trkpt lat="48.93901" lon="1.84078">
        <ele>27.05</ele>
        <time>2012-05-08T16:03:18Z</time>
      </trkpt>
      <trkpt lat="48.93881" lon="1.84098">
        <ele>29.46</ele>
        <time>2012-05-08T16:03:28Z</time>
      </trkpt>
      <trkpt lat="48.93845" lon="1.84106">
        <ele>29.94</ele>
        <time>2012-05-08T16:03:39Z</time>
      </trkpt>
      <trkpt lat="48.93845" lon="1.84106">
        <ele>29.94</ele>
        <time>2012-05-08T16:04:11Z</time>
      </trkpt>
      <trkpt lat="48.93845" lon="1.84106">
        <ele>29.94</ele>
        <time>2012-05-08T16:04:28Z</time>
      </trkpt>
      <trkpt lat="48.93845" lon="1.84106">
        <ele>29.46</ele>
        <time>2012-05-08T16:04:45Z</time>
      </trkpt>
      <trkpt lat="48.93845" lon="1.84106">
        <ele>29.46</ele>
        <time>2012-05-08T16:05:20Z</time>
      </trkpt>
      <trkpt lat="48.93845" lon="1.84106">
        <ele>29.46</ele>
        <time>2012-05-08T16:05:51Z</time>
      </trkpt>
    </trkseg>
  </trk>
</gpx>